<?xml version="1.0" encoding="UTF-8" standalone="no" ?><gpx xmlns="http://www.topografix.com/GPX/1/1" xmlns:gpxx="http://www.garmin.com/xmlschemas/GpxExtensions/v3" xmlns:wptx1="http://www.garmin.com/xmlschemas/WaypointExtension/v1" xmlns:gpxtpx="http://www.garmin.com/xmlschemas/TrackPointExtension/v1" creator="Dakota 20" version="1.1" xmlns:xsi="http://www.w3.org/2001/XMLSchema-instance" xsi:schemaLocation="http://www.topografix.com/GPX/1/1 http://www.topografix.com/GPX/1/1/gpx.xsd http://www.garmin.com/xmlschemas/GpxExtensions/v3 http://www8.garmin.com/xmlschemas/GpxExtensionsv3.xsd http://www.garmin.com/xmlschemas/WaypointExtension/v1 http://www8.garmin.com/xmlschemas/WaypointExtensionv1.xsd http://www.garmin.com/xmlschemas/TrackPointExtension/v1 http://www.garmin.com/xmlschemas/TrackPointExtensionv1.xsd"><metadata><link href="http://www.garmin.com"><text>Garmin International</text></link><time>2012-01-18T19:21:39Z</time></metadata><trk><name>Current Track: 18 JAN 2012 10:02</name><extensions><gpxx:TrackExtension><gpxx:DisplayColor>Black</gpxx:DisplayColor></gpxx:TrackExtension></extensions><trkseg><trkpt lat="51.6856994200" lon="-2.3018584494"><ele>130.88</ele><time>2012-01-18T10:02:32Z</time></trkpt><trkpt lat="51.6857009288" lon="-2.3018466309"><ele>130.40</ele><time>2012-01-18T10:02:51Z</time></trkpt><trkpt lat="51.6857035272" lon="-2.3018382490"><ele>131.36</ele><time>2012-01-18T10:03:09Z</time></trkpt><trkpt lat="51.6857098136" lon="-2.3019413464"><ele>129.43</ele><time>2012-01-18T10:03:16Z</time></trkpt><trkpt lat="51.6857007612" lon="-2.3021316994"><ele>128.95</ele><time>2012-01-18T10:03:25Z</time></trkpt><trkpt lat="51.6857543215" lon="-2.3023311887"><ele>130.40</ele><time>2012-01-18T10:03:34Z</time></trkpt><trkpt lat="51.6858054511" lon="-2.3023935501"><ele>131.36</ele><time>2012-01-18T10:03:38Z</time></trkpt><trkpt lat="51.6858475283" lon="-2.3024574202"><ele>130.88</ele><time>2012-01-18T10:03:42Z</time></trkpt><trkpt lat="51.6859006695" lon="-2.3024979047"><ele>132.32</ele><time>2012-01-18T10:03:47Z</time></trkpt><trkpt lat="51.6859695688" lon="-2.3024131637"><ele>132.80</ele><time>2012-01-18T10:03:52Z</time></trkpt><trkpt lat="51.6859963909" lon="-2.3023177776"><ele>132.80</ele><time>2012-01-18T10:03:56Z</time></trkpt><trkpt lat="51.6860131547" lon="-2.3022828251"><ele>132.80</ele><time>2012-01-18T10:03:58Z</time></trkpt><trkpt lat="51.6860364564" lon="-2.3021434341"><ele>132.32</ele><time>2012-01-18T10:04:04Z</time></trkpt><trkpt lat="51.6860978119" lon="-2.3017475568"><ele>134.72</ele><time>2012-01-18T10:04:19Z</time></trkpt><trkpt lat="51.6861028410" lon="-2.3017209023"><ele>135.20</ele><time>2012-01-18T10:04:20Z</time></trkpt><trkpt lat="51.6861303337" lon="-2.3016266897"><ele>135.68</ele><time>2012-01-18T10:04:24Z</time></trkpt><trkpt lat="51.6862071957" lon="-2.3011904117"><ele>131.84</ele><time>2012-01-18T10:04:42Z</time></trkpt><trkpt lat="51.6862323415" lon="-2.3010993004"><ele>131.84</ele><time>2012-01-18T10:04:48Z</time></trkpt><trkpt lat="51.6862353589" lon="-2.3010350950"><ele>130.88</ele><time>2012-01-18T10:04:51Z</time></trkpt><trkpt lat="51.6862602532" lon="-2.3008100409"><ele>129.43</ele><time>2012-01-18T10:05:04Z</time></trkpt><trkpt lat="51.6862965468" lon="-2.3005942069"><ele>127.51</ele><time>2012-01-18T10:05:20Z</time></trkpt><trkpt lat="51.6863634344" lon="-2.3003435042"><ele>124.15</ele><time>2012-01-18T10:05:37Z</time></trkpt><trkpt lat="51.6863962915" lon="-2.3001065478"><ele>122.71</ele><time>2012-01-18T10:05:52Z</time></trkpt><trkpt lat="51.6864093672" lon="-2.3000414204"><ele>122.22</ele><time>2012-01-18T10:05:56Z</time></trkpt><trkpt lat="51.6864458285" lon="-2.2998632211"><ele>120.78</ele><time>2012-01-18T10:06:08Z</time></trkpt><trkpt lat="51.6864801105" lon="-2.2996553499"><ele>118.38</ele><time>2012-01-18T10:06:22Z</time></trkpt><trkpt lat="51.6865239479" lon="-2.2994494066"><ele>116.94</ele><time>2012-01-18T10:06:37Z</time></trkpt><trkpt lat="51.6865140572" lon="-2.2991925012"><ele>115.01</ele><time>2012-01-18T10:06:53Z</time></trkpt><trkpt lat="51.6865038313" lon="-2.2989407927"><ele>113.09</ele><time>2012-01-18T10:07:09Z</time></trkpt><trkpt lat="51.6864943597" lon="-2.2987053450"><ele>112.13</ele><time>2012-01-18T10:07:24Z</time></trkpt><trkpt lat="51.6864880733" lon="-2.2984191868"><ele>109.25</ele><time>2012-01-18T10:07:42Z</time></trkpt><trkpt lat="51.6864704713" lon="-2.2981564142"><ele>108.77</ele><time>2012-01-18T10:07:58Z</time></trkpt><trkpt lat="51.6864156537" lon="-2.2979145125"><ele>107.81</ele><time>2012-01-18T10:08:12Z</time></trkpt><trkpt lat="51.6863364447" lon="-2.2977045458"><ele>108.29</ele><time>2012-01-18T10:08:27Z</time></trkpt><trkpt lat="51.6863217764" lon="-2.2976663243"><ele>107.81</ele><time>2012-01-18T10:08:30Z</time></trkpt><trkpt lat="51.6862814594" lon="-2.2976101656"><ele>107.81</ele><time>2012-01-18T10:08:35Z</time></trkpt><trkpt lat="51.6862208582" lon="-2.2974512447"><ele>108.29</ele><time>2012-01-18T10:08:50Z</time></trkpt><trkpt lat="51.6862068605" lon="-2.2974015400"><ele>108.77</ele><time>2012-01-18T10:09:04Z</time></trkpt><trkpt lat="51.6861389671" lon="-2.2972325608"><ele>110.21</ele><time>2012-01-18T10:09:18Z</time></trkpt><trkpt lat="51.6860885918" lon="-2.2971051559"><ele>111.17</ele><time>2012-01-18T10:09:26Z</time></trkpt><trkpt lat="51.6860696487" lon="-2.2970426269"><ele>111.17</ele><time>2012-01-18T10:09:29Z</time></trkpt><trkpt lat="51.6860279068" lon="-2.2968853824"><ele>112.13</ele><time>2012-01-18T10:09:36Z</time></trkpt><trkpt lat="51.6859880928" lon="-2.2967523616"><ele>112.61</ele><time>2012-01-18T10:09:43Z</time></trkpt><trkpt lat="51.6859010886" lon="-2.2965009883"><ele>113.57</ele><time>2012-01-18T10:10:00Z</time></trkpt><trkpt lat="51.6858259030" lon="-2.2962918598"><ele>114.05</ele><time>2012-01-18T10:10:13Z</time></trkpt><trkpt lat="51.6857435927" lon="-2.2960753553"><ele>114.05</ele><time>2012-01-18T10:10:28Z</time></trkpt><trkpt lat="51.6856881045" lon="-2.2958880197"><ele>115.98</ele><time>2012-01-18T10:10:41Z</time></trkpt><trkpt lat="51.6856476199" lon="-2.2957207169"><ele>116.94</ele><time>2012-01-18T10:10:54Z</time></trkpt><trkpt lat="51.6856270004" lon="-2.2956800647"><ele>116.46</ele><time>2012-01-18T10:10:57Z</time></trkpt><trkpt lat="51.6855746973" lon="-2.2953942418"><ele>118.38</ele><time>2012-01-18T10:11:16Z</time></trkpt><trkpt lat="51.6855544131" lon="-2.2951570340"><ele>120.30</ele><time>2012-01-18T10:11:34Z</time></trkpt><trkpt lat="51.6855521500" lon="-2.2951401863"><ele>120.30</ele><time>2012-01-18T10:11:35Z</time></trkpt><trkpt lat="51.6855811514" lon="-2.2950115241"><ele>122.22</ele><time>2012-01-18T10:11:49Z</time></trkpt><trkpt lat="51.6857394855" lon="-2.2950219177"><ele>124.63</ele><time>2012-01-18T10:12:06Z</time></trkpt><trkpt lat="51.6858914495" lon="-2.2949847020"><ele>126.07</ele><time>2012-01-18T10:12:22Z</time></trkpt><trkpt lat="51.6860211175" lon="-2.2949807625"><ele>127.03</ele><time>2012-01-18T10:12:38Z</time></trkpt><trkpt lat="51.6862569842" lon="-2.2949433792"><ele>127.99</ele><time>2012-01-18T10:12:55Z</time></trkpt><trkpt lat="51.6864002310" lon="-2.2949187364"><ele>127.99</ele><time>2012-01-18T10:13:10Z</time></trkpt><trkpt lat="51.6864893306" lon="-2.2948995419"><ele>127.99</ele><time>2012-01-18T10:13:18Z</time></trkpt><trkpt lat="51.6866562143" lon="-2.2948639188"><ele>127.51</ele><time>2012-01-18T10:13:33Z</time></trkpt><trkpt lat="51.6868034843" lon="-2.2948091850"><ele>127.51</ele><time>2012-01-18T10:13:48Z</time></trkpt><trkpt lat="51.6869109403" lon="-2.2947436385"><ele>127.99</ele><time>2012-01-18T10:14:02Z</time></trkpt><trkpt lat="51.6869530175" lon="-2.2947149724"><ele>127.99</ele><time>2012-01-18T10:14:07Z</time></trkpt><trkpt lat="51.6870894749" lon="-2.2946156468"><ele>128.47</ele><time>2012-01-18T10:14:23Z</time></trkpt><trkpt lat="51.6871267743" lon="-2.2945691273"><ele>129.43</ele><time>2012-01-18T10:14:28Z</time></trkpt><trkpt lat="51.6871965956" lon="-2.2945199255"><ele>129.92</ele><time>2012-01-18T10:14:38Z</time></trkpt><trkpt lat="51.6873375792" lon="-2.2944096196"><ele>130.40</ele><time>2012-01-18T10:14:53Z</time></trkpt><trkpt lat="51.6874809936" lon="-2.2943371162"><ele>131.36</ele><time>2012-01-18T10:15:08Z</time></trkpt><trkpt lat="51.6876205523" lon="-2.2942940332"><ele>131.36</ele><time>2012-01-18T10:15:22Z</time></trkpt><trkpt lat="51.6876395792" lon="-2.2942833882"><ele>131.36</ele><time>2012-01-18T10:15:24Z</time></trkpt><trkpt lat="51.6877876036" lon="-2.2942553088"><ele>131.36</ele><time>2012-01-18T10:15:38Z</time></trkpt><trkpt lat="51.6879373044" lon="-2.2942202725"><ele>132.32</ele><time>2012-01-18T10:15:53Z</time></trkpt><trkpt lat="51.6879979894" lon="-2.2942491900"><ele>132.32</ele><time>2012-01-18T10:16:10Z</time></trkpt><trkpt lat="51.6880488675" lon="-2.2942856513"><ele>132.80</ele><time>2012-01-18T10:16:24Z</time></trkpt><trkpt lat="51.6881813854" lon="-2.2943037562"><ele>132.80</ele><time>2012-01-18T10:16:38Z</time></trkpt><trkpt lat="51.6883066110" lon="-2.2943200171"><ele>132.80</ele><time>2012-01-18T10:16:53Z</time></trkpt><trkpt lat="51.6884812899" lon="-2.2944100387"><ele>133.28</ele><time>2012-01-18T10:17:11Z</time></trkpt><trkpt lat="51.6885660309" lon="-2.2944559716"><ele>132.80</ele><time>2012-01-18T10:17:20Z</time></trkpt><trkpt lat="51.6886269674" lon="-2.2945101187"><ele>132.80</ele><time>2012-01-18T10:17:36Z</time></trkpt><trkpt lat="51.6886341758" lon="-2.2945226077"><ele>132.80</ele><time>2012-01-18T10:17:54Z</time></trkpt><trkpt lat="51.6886412166" lon="-2.2945226915"><ele>132.80</ele><time>2012-01-18T10:18:19Z</time></trkpt><trkpt lat="51.6886754986" lon="-2.2945485916"><ele>132.32</ele><time>2012-01-18T10:18:34Z</time></trkpt><trkpt lat="51.6887485888" lon="-2.2945666965"><ele>131.84</ele><time>2012-01-18T10:18:48Z</time></trkpt><trkpt lat="51.6887925938" lon="-2.2945373598"><ele>132.80</ele><time>2012-01-18T10:18:56Z</time></trkpt><trkpt lat="51.6888154764" lon="-2.2945443168"><ele>132.80</ele><time>2012-01-18T10:18:59Z</time></trkpt><trkpt lat="51.6889687814" lon="-2.2945914231"><ele>133.28</ele><time>2012-01-18T10:19:14Z</time></trkpt><trkpt lat="51.6891140398" lon="-2.2946245316"><ele>133.76</ele><time>2012-01-18T10:19:27Z</time></trkpt><trkpt lat="51.6892269440" lon="-2.2946286388"><ele>133.28</ele><time>2012-01-18T10:19:38Z</time></trkpt><trkpt lat="51.6893617250" lon="-2.2946639266"><ele>133.28</ele><time>2012-01-18T10:19:51Z</time></trkpt><trkpt lat="51.6894763894" lon="-2.2946441453"><ele>133.28</ele><time>2012-01-18T10:20:04Z</time></trkpt><trkpt lat="51.6895058937" lon="-2.2946484201"><ele>133.28</ele><time>2012-01-18T10:20:07Z</time></trkpt><trkpt lat="51.6896363162" lon="-2.2946206760"><ele>133.28</ele><time>2012-01-18T10:20:20Z</time></trkpt><trkpt lat="51.6896731965" lon="-2.2946384456"><ele>132.80</ele><time>2012-01-18T10:20:25Z</time></trkpt><trkpt lat="51.6898131743" lon="-2.2946524434"><ele>132.80</ele><time>2012-01-18T10:20:39Z</time></trkpt><trkpt lat="51.6899362206" lon="-2.2946701292"><ele>133.28</ele><time>2012-01-18T10:20:54Z</time></trkpt><trkpt lat="51.6900508013" lon="-2.2946801875"><ele>133.28</ele><time>2012-01-18T10:21:08Z</time></trkpt><trkpt lat="51.6901830677" lon="-2.2947504278"><ele>133.28</ele><time>2012-01-18T10:21:24Z</time></trkpt><trkpt lat="51.6902929544" lon="-2.2947891522"><ele>132.80</ele><time>2012-01-18T10:21:34Z</time></trkpt><trkpt lat="51.6903699841" lon="-2.2947998811"><ele>132.80</ele><time>2012-01-18T10:21:40Z</time></trkpt><trkpt lat="51.6904464271" lon="-2.2948013060"><ele>132.32</ele><time>2012-01-18T10:21:47Z</time></trkpt><trkpt lat="51.6905828845" lon="-2.2947854642"><ele>133.28</ele><time>2012-01-18T10:22:00Z</time></trkpt><trkpt lat="51.6907267179" lon="-2.2947259527"><ele>134.24</ele><time>2012-01-18T10:22:13Z</time></trkpt><trkpt lat="51.6908774246" lon="-2.2946458217"><ele>134.24</ele><time>2012-01-18T10:22:26Z</time></trkpt><trkpt lat="51.6910107806" lon="-2.2945554648"><ele>134.24</ele><time>2012-01-18T10:22:38Z</time></trkpt><trkpt lat="51.6911195777" lon="-2.2944720648"><ele>134.72</ele><time>2012-01-18T10:22:51Z</time></trkpt><trkpt lat="51.6912108567" lon="-2.2943990584"><ele>135.68</ele><time>2012-01-18T10:23:05Z</time></trkpt><trkpt lat="51.6913085897" lon="-2.2943424806"><ele>136.64</ele><time>2012-01-18T10:23:19Z</time></trkpt><trkpt lat="51.6914024670" lon="-2.2942891717"><ele>137.13</ele><time>2012-01-18T10:23:34Z</time></trkpt><trkpt lat="51.6914831009" lon="-2.2942489386"><ele>136.64</ele><time>2012-01-18T10:23:47Z</time></trkpt><trkpt lat="51.6915004514" lon="-2.2942335997"><ele>137.61</ele><time>2012-01-18T10:24:02Z</time></trkpt><trkpt lat="51.6915677581" lon="-2.2942051850"><ele>136.64</ele><time>2012-01-18T10:24:19Z</time></trkpt><trkpt lat="51.6916249227" lon="-2.2941942047"><ele>137.61</ele><time>2012-01-18T10:24:36Z</time></trkpt><trkpt lat="51.6916883737" lon="-2.2941833921"><ele>136.64</ele><time>2012-01-18T10:24:51Z</time></trkpt><trkpt lat="51.6917985957" lon="-2.2941625211"><ele>137.13</ele><time>2012-01-18T10:25:04Z</time></trkpt><trkpt lat="51.6918726079" lon="-2.2941286582"><ele>137.61</ele><time>2012-01-18T10:25:17Z</time></trkpt><trkpt lat="51.6919594444" lon="-2.2941190191"><ele>137.61</ele><time>2012-01-18T10:25:30Z</time></trkpt><trkpt lat="51.6919797286" lon="-2.2941164207"><ele>137.61</ele><time>2012-01-18T10:25:32Z</time></trkpt><trkpt lat="51.6920079757" lon="-2.2941066977"><ele>137.61</ele><time>2012-01-18T10:25:35Z</time></trkpt><trkpt lat="51.6920783836" lon="-2.2940896824"><ele>138.09</ele><time>2012-01-18T10:25:42Z</time></trkpt><trkpt lat="51.6921142582" lon="-2.2940724995"><ele>138.57</ele><time>2012-01-18T10:25:46Z</time></trkpt><trkpt lat="51.6922648810" lon="-2.2940446716"><ele>139.53</ele><time>2012-01-18T10:26:01Z</time></trkpt><trkpt lat="51.6923519690" lon="-2.2940422408"><ele>140.01</ele><time>2012-01-18T10:26:15Z</time></trkpt><trkpt lat="51.6924227122" lon="-2.2940245550"><ele>140.49</ele><time>2012-01-18T10:26:29Z</time></trkpt><trkpt lat="51.6924897674" lon="-2.2939864174"><ele>140.49</ele><time>2012-01-18T10:26:42Z</time></trkpt><trkpt lat="51.6924985684" lon="-2.2939839866"><ele>141.45</ele><time>2012-01-18T10:27:02Z</time></trkpt><trkpt lat="51.6925015021" lon="-2.2939907759"><ele>141.45</ele><time>2012-01-18T10:27:17Z</time></trkpt><trkpt lat="51.6925049387" lon="-2.2939844895"><ele>140.97</ele><time>2012-01-18T10:27:38Z</time></trkpt><trkpt lat="51.6925523803" lon="-2.2939615231"><ele>141.93</ele><time>2012-01-18T10:27:58Z</time></trkpt><trkpt lat="51.6926540527" lon="-2.2938738484"><ele>141.45</ele><time>2012-01-18T10:28:10Z</time></trkpt><trkpt lat="51.6927266400" lon="-2.2937660571"><ele>142.41</ele><time>2012-01-18T10:28:23Z</time></trkpt><trkpt lat="51.6928332578" lon="-2.2936022747"><ele>142.89</ele><time>2012-01-18T10:28:38Z</time></trkpt><trkpt lat="51.6928910930" lon="-2.2935239878"><ele>142.89</ele><time>2012-01-18T10:28:51Z</time></trkpt><trkpt lat="51.6929272190" lon="-2.2933937330"><ele>143.37</ele><time>2012-01-18T10:29:04Z</time></trkpt><trkpt lat="51.6929350980" lon="-2.2932501510"><ele>143.85</ele><time>2012-01-18T10:29:17Z</time></trkpt><trkpt lat="51.6929267999" lon="-2.2930299584"><ele>143.37</ele><time>2012-01-18T10:29:34Z</time></trkpt><trkpt lat="51.6929466650" lon="-2.2928755637"><ele>143.37</ele><time>2012-01-18T10:29:48Z</time></trkpt><trkpt lat="51.6929578129" lon="-2.2927133739"><ele>142.89</ele><time>2012-01-18T10:30:01Z</time></trkpt><trkpt lat="51.6929620877" lon="-2.2927019745"><ele>142.89</ele><time>2012-01-18T10:30:07Z</time></trkpt><trkpt lat="51.6929993872" lon="-2.2925536148"><ele>142.89</ele><time>2012-01-18T10:30:17Z</time></trkpt><trkpt lat="51.6930248681" lon="-2.2924386989"><ele>142.41</ele><time>2012-01-18T10:30:29Z</time></trkpt><trkpt lat="51.6930318251" lon="-2.2924020700"><ele>143.37</ele><time>2012-01-18T10:30:42Z</time></trkpt><trkpt lat="51.6930565517" lon="-2.2923455760"><ele>143.85</ele><time>2012-01-18T10:31:03Z</time></trkpt><trkpt lat="51.6930782609" lon="-2.2922736593"><ele>143.37</ele><time>2012-01-18T10:31:18Z</time></trkpt><trkpt lat="51.6931231041" lon="-2.2921702266"><ele>142.89</ele><time>2012-01-18T10:31:25Z</time></trkpt><trkpt lat="51.6931840405" lon="-2.2920477670"><ele>143.85</ele><time>2012-01-18T10:31:34Z</time></trkpt><trkpt lat="51.6932982020" lon="-2.2919107229"><ele>143.85</ele><time>2012-01-18T10:31:49Z</time></trkpt><trkpt lat="51.6934042331" lon="-2.2917731758"><ele>144.34</ele><time>2012-01-18T10:32:03Z</time></trkpt><trkpt lat="51.6934930813" lon="-2.2916166857"><ele>145.30</ele><time>2012-01-18T10:32:17Z</time></trkpt><trkpt lat="51.6934956796" lon="-2.2916000057"><ele>145.30</ele><time>2012-01-18T10:32:18Z</time></trkpt><trkpt lat="51.6935733799" lon="-2.2914647218"><ele>145.78</ele><time>2012-01-18T10:32:32Z</time></trkpt><trkpt lat="51.6936447099" lon="-2.2913600318"><ele>147.22</ele><time>2012-01-18T10:32:44Z</time></trkpt><trkpt lat="51.6937213205" lon="-2.2912514023"><ele>148.18</ele><time>2012-01-18T10:32:56Z</time></trkpt><trkpt lat="51.6937828436" lon="-2.2911142744"><ele>149.14</ele><time>2012-01-18T10:33:09Z</time></trkpt><trkpt lat="51.6938711051" lon="-2.2909846064"><ele>150.10</ele><time>2012-01-18T10:33:22Z</time></trkpt><trkpt lat="51.6939178761" lon="-2.2909364104"><ele>150.58</ele><time>2012-01-18T10:33:28Z</time></trkpt><trkpt lat="51.6940160282" lon="-2.2908421140"><ele>150.58</ele><time>2012-01-18T10:33:41Z</time></trkpt><trkpt lat="51.6940519027" lon="-2.2907836922"><ele>151.54</ele><time>2012-01-18T10:33:48Z</time></trkpt><trkpt lat="51.6940872744" lon="-2.2907610610"><ele>152.03</ele><time>2012-01-18T10:33:52Z</time></trkpt><trkpt lat="51.6941601969" lon="-2.2907453030"><ele>151.06</ele><time>2012-01-18T10:34:05Z</time></trkpt><trkpt lat="51.6941601969" lon="-2.2907453030"><ele>152.03</ele><time>2012-01-18T10:34:27Z</time></trkpt><trkpt lat="51.6941625439" lon="-2.2907462250"><ele>153.47</ele><time>2012-01-18T10:34:51Z</time></trkpt><trkpt lat="51.6941625439" lon="-2.2907462250"><ele>152.51</ele><time>2012-01-18T10:35:11Z</time></trkpt><trkpt lat="51.6941565089" lon="-2.2907582950"><ele>151.54</ele><time>2012-01-18T10:35:33Z</time></trkpt><trkpt lat="51.6941565089" lon="-2.2907582950"><ele>152.03</ele><time>2012-01-18T10:35:57Z</time></trkpt><trkpt lat="51.6941477917" lon="-2.2907599714"><ele>152.03</ele><time>2012-01-18T10:36:25Z</time></trkpt><trkpt lat="51.6941477917" lon="-2.2907599714"><ele>152.51</ele><time>2012-01-18T10:36:45Z</time></trkpt><trkpt lat="51.6941518988" lon="-2.2907635756"><ele>151.06</ele><time>2012-01-18T10:37:08Z</time></trkpt><trkpt lat="51.6941409186" lon="-2.2907673474"><ele>151.06</ele><time>2012-01-18T10:37:21Z</time></trkpt><trkpt lat="51.6940305289" lon="-2.2908083349"><ele>151.06</ele><time>2012-01-18T10:37:35Z</time></trkpt><trkpt lat="51.6940522380" lon="-2.2908212431"><ele>151.54</ele><time>2012-01-18T10:37:55Z</time></trkpt><trkpt lat="51.6941426788" lon="-2.2907732148"><ele>151.54</ele><time>2012-01-18T10:38:10Z</time></trkpt><trkpt lat="51.6942422558" lon="-2.2906971909"><ele>153.47</ele><time>2012-01-18T10:38:25Z</time></trkpt><trkpt lat="51.6943659727" lon="-2.2906129528"><ele>154.91</ele><time>2012-01-18T10:38:42Z</time></trkpt><trkpt lat="51.6944438405" lon="-2.2905466519"><ele>154.91</ele><time>2012-01-18T10:38:57Z</time></trkpt><trkpt lat="51.6945424955" lon="-2.2905191593"><ele>156.35</ele><time>2012-01-18T10:39:11Z</time></trkpt><trkpt lat="51.6946695652" lon="-2.2905062512"><ele>157.31</ele><time>2012-01-18T10:39:27Z</time></trkpt><trkpt lat="51.6947475169" lon="-2.2905316483"><ele>158.27</ele><time>2012-01-18T10:39:37Z</time></trkpt><trkpt lat="51.6948568169" lon="-2.2905492503"><ele>159.72</ele><time>2012-01-18T10:39:51Z</time></trkpt><trkpt lat="51.6948826332" lon="-2.2905469872"><ele>161.64</ele><time>2012-01-18T10:40:06Z</time></trkpt><trkpt lat="51.6948826332" lon="-2.2905469872"><ele>162.12</ele><time>2012-01-18T10:40:21Z</time></trkpt><trkpt lat="51.6949344333" lon="-2.2905626614"><ele>163.56</ele><time>2012-01-18T10:40:35Z</time></trkpt><trkpt lat="51.6950283945" lon="-2.2906017210"><ele>164.52</ele><time>2012-01-18T10:40:46Z</time></trkpt><trkpt lat="51.6950283945" lon="-2.2906017210"><ele>165.96</ele><time>2012-01-18T10:41:01Z</time></trkpt><trkpt lat="51.6950283945" lon="-2.2906017210"><ele>165.96</ele><time>2012-01-18T10:41:25Z</time></trkpt><trkpt lat="51.6950333398" lon="-2.2906068340"><ele>166.45</ele><time>2012-01-18T10:41:52Z</time></trkpt><trkpt lat="51.6950443201" lon="-2.2906229272"><ele>166.45</ele><time>2012-01-18T10:42:16Z</time></trkpt><trkpt lat="51.6950919293" lon="-2.2906054929"><ele>167.41</ele><time>2012-01-18T10:42:40Z</time></trkpt><trkpt lat="51.6952345055" lon="-2.2906494141"><ele>166.93</ele><time>2012-01-18T10:42:56Z</time></trkpt><trkpt lat="51.6952345055" lon="-2.2906494141"><ele>168.85</ele><time>2012-01-18T10:43:13Z</time></trkpt><trkpt lat="51.6953194980" lon="-2.2907846980"><ele>170.29</ele><time>2012-01-18T10:43:29Z</time></trkpt><trkpt lat="51.6953670233" lon="-2.2907575406"><ele>171.73</ele><time>2012-01-18T10:43:48Z</time></trkpt><trkpt lat="51.6953670233" lon="-2.2907575406"><ele>172.69</ele><time>2012-01-18T10:44:10Z</time></trkpt><trkpt lat="51.6954168957" lon="-2.2907734662"><ele>174.14</ele><time>2012-01-18T10:44:28Z</time></trkpt><trkpt lat="51.6954256129" lon="-2.2908120230"><ele>177.02</ele><time>2012-01-18T10:44:45Z</time></trkpt><trkpt lat="51.6955012176" lon="-2.2908380907"><ele>177.02</ele><time>2012-01-18T10:45:07Z</time></trkpt><trkpt lat="51.6956722923" lon="-2.2907762323"><ele>178.94</ele><time>2012-01-18T10:45:28Z</time></trkpt><trkpt lat="51.6958799120" lon="-2.2906206641"><ele>181.83</ele><time>2012-01-18T10:45:42Z</time></trkpt><trkpt lat="51.6958815884" lon="-2.2906178981"><ele>183.75</ele><time>2012-01-18T10:46:06Z</time></trkpt><trkpt lat="51.6959287785" lon="-2.2905632481"><ele>187.11</ele><time>2012-01-18T10:46:24Z</time></trkpt><trkpt lat="51.6959287785" lon="-2.2905632481"><ele>180.87</ele><time>2012-01-18T10:46:25Z</time></trkpt><trkpt lat="51.6959287785" lon="-2.2905632481"><ele>184.71</ele><time>2012-01-18T10:46:26Z</time></trkpt><trkpt lat="51.6959287785" lon="-2.2905632481"><ele>185.67</ele><time>2012-01-18T10:46:29Z</time></trkpt><trkpt lat="51.6960513219" lon="-2.2905196622"><ele>184.23</ele><time>2012-01-18T10:46:47Z</time></trkpt><trkpt lat="51.6960493941" lon="-2.2905085143"><ele>183.75</ele><time>2012-01-18T10:47:14Z</time></trkpt><trkpt lat="51.6960548423" lon="-2.2904881462"><ele>185.19</ele><time>2012-01-18T10:47:35Z</time></trkpt><trkpt lat="51.6960548423" lon="-2.2904881462"><ele>185.19</ele><time>2012-01-18T10:47:56Z</time></trkpt><trkpt lat="51.6960548423" lon="-2.2904881462"><ele>185.19</ele><time>2012-01-18T10:47:59Z</time></trkpt><trkpt lat="51.6958443727" lon="-2.2905785870"><ele>185.19</ele><time>2012-01-18T10:48:21Z</time></trkpt><trkpt lat="51.6958577000" lon="-2.2906137910"><ele>184.23</ele><time>2012-01-18T10:48:31Z</time></trkpt><trkpt lat="51.6958582029" lon="-2.2906132042"><ele>188.08</ele><time>2012-01-18T10:48:32Z</time></trkpt><trkpt lat="51.6958577000" lon="-2.2906137910"><ele>189.52</ele><time>2012-01-18T10:48:33Z</time></trkpt><trkpt lat="51.6958577000" lon="-2.2906137910"><ele>188.08</ele><time>2012-01-18T10:48:35Z</time></trkpt><trkpt lat="51.6958577000" lon="-2.2906137910"><ele>186.63</ele><time>2012-01-18T10:48:36Z</time></trkpt><trkpt lat="51.6958577838" lon="-2.2906120308"><ele>188.08</ele><time>2012-01-18T10:48:37Z</time></trkpt><trkpt lat="51.6958577000" lon="-2.2906137910"><ele>189.04</ele><time>2012-01-18T10:48:38Z</time></trkpt><trkpt lat="51.6962845065" lon="-2.2902280558"><ele>191.44</ele><time>2012-01-18T10:48:52Z</time></trkpt><trkpt lat="51.6963735223" lon="-2.2900501080"><ele>190.96</ele><time>2012-01-18T10:49:01Z</time></trkpt><trkpt lat="51.6964115761" lon="-2.2900283150"><ele>191.44</ele><time>2012-01-18T10:49:05Z</time></trkpt><trkpt lat="51.6964686569" lon="-2.2899838910"><ele>194.80</ele><time>2012-01-18T10:49:11Z</time></trkpt><trkpt lat="51.6966181900" lon="-2.2900660336"><ele>198.17</ele><time>2012-01-18T10:49:31Z</time></trkpt><trkpt lat="51.6966834012" lon="-2.2900837194"><ele>199.13</ele><time>2012-01-18T10:49:51Z</time></trkpt><trkpt lat="51.6966791265" lon="-2.2900827136"><ele>199.61</ele><time>2012-01-18T10:50:14Z</time></trkpt><trkpt lat="51.6966791265" lon="-2.2900827136"><ele>196.25</ele><time>2012-01-18T10:50:21Z</time></trkpt><trkpt lat="51.6966791265" lon="-2.2900827136"><ele>203.46</ele><time>2012-01-18T10:50:22Z</time></trkpt><trkpt lat="51.6966791265" lon="-2.2900827136"><ele>198.65</ele><time>2012-01-18T10:50:23Z</time></trkpt><trkpt lat="51.6966791265" lon="-2.2900827136"><ele>202.98</ele><time>2012-01-18T10:50:25Z</time></trkpt><trkpt lat="51.6966791265" lon="-2.2900827136"><ele>200.09</ele><time>2012-01-18T10:50:26Z</time></trkpt><trkpt lat="51.6966704931" lon="-2.2900749184"><ele>201.53</ele><time>2012-01-18T10:50:54Z</time></trkpt><trkpt lat="51.6966700740" lon="-2.2900392115"><ele>202.01</ele><time>2012-01-18T10:51:00Z</time></trkpt><trkpt lat="51.6967727523" lon="-2.2899730783"><ele>202.98</ele><time>2012-01-18T10:51:19Z</time></trkpt><trkpt lat="51.6968626902" lon="-2.2899444960"><ele>204.42</ele><time>2012-01-18T10:51:26Z</time></trkpt><trkpt lat="51.6968738381" lon="-2.2899316717"><ele>200.57</ele><time>2012-01-18T10:51:28Z</time></trkpt><trkpt lat="51.6968798731" lon="-2.2899220325"><ele>205.38</ele><time>2012-01-18T10:51:29Z</time></trkpt><trkpt lat="51.6969059408" lon="-2.2898909356"><ele>206.34</ele><time>2012-01-18T10:51:46Z</time></trkpt><trkpt lat="51.6969216987" lon="-2.2899019159"><ele>205.86</ele><time>2012-01-18T10:52:06Z</time></trkpt><trkpt lat="51.6969731636" lon="-2.2899142373"><ele>205.86</ele><time>2012-01-18T10:52:25Z</time></trkpt><trkpt lat="51.6968954634" lon="-2.2898608446"><ele>205.86</ele><time>2012-01-18T10:52:43Z</time></trkpt><trkpt lat="51.6968910210" lon="-2.2898682207"><ele>205.86</ele><time>2012-01-18T10:53:10Z</time></trkpt><trkpt lat="51.6968900152" lon="-2.2898529656"><ele>205.86</ele><time>2012-01-18T10:53:30Z</time></trkpt><trkpt lat="51.6969026718" lon="-2.2898516245"><ele>205.86</ele><time>2012-01-18T10:53:51Z</time></trkpt><trkpt lat="51.6969017498" lon="-2.2898581624"><ele>205.86</ele><time>2012-01-18T10:54:18Z</time></trkpt><trkpt lat="51.6968923621" lon="-2.2898497805"><ele>205.86</ele><time>2012-01-18T10:54:43Z</time></trkpt><trkpt lat="51.6968923621" lon="-2.2898497805"><ele>205.38</ele><time>2012-01-18T10:55:08Z</time></trkpt><trkpt lat="51.6968921106" lon="-2.2898495290"><ele>206.82</ele><time>2012-01-18T10:55:34Z</time></trkpt><trkpt lat="51.6968994867" lon="-2.2898500320"><ele>206.34</ele><time>2012-01-18T10:55:57Z</time></trkpt><trkpt lat="51.6969106346" lon="-2.2898784466"><ele>206.82</ele><time>2012-01-18T10:56:18Z</time></trkpt><trkpt lat="51.6969103832" lon="-2.2898728307"><ele>205.86</ele><time>2012-01-18T10:56:45Z</time></trkpt><trkpt lat="51.6969087906" lon="-2.2898641136"><ele>205.86</ele><time>2012-01-18T10:57:08Z</time></trkpt><trkpt lat="51.6969237942" lon="-2.2898143250"><ele>199.61</ele><time>2012-01-18T10:57:29Z</time></trkpt><trkpt lat="51.6969273146" lon="-2.2898087092"><ele>227.97</ele><time>2012-01-18T10:57:30Z</time></trkpt><trkpt lat="51.6969295777" lon="-2.2898012493"><ele>205.86</ele><time>2012-01-18T10:57:31Z</time></trkpt><trkpt lat="51.6969508678" lon="-2.2897626925"><ele>207.78</ele><time>2012-01-18T10:57:52Z</time></trkpt><trkpt lat="51.6970232036" lon="-2.2896216251"><ele>208.26</ele><time>2012-01-18T10:58:05Z</time></trkpt><trkpt lat="51.6970744170" lon="-2.2895730101"><ele>208.74</ele><time>2012-01-18T10:58:11Z</time></trkpt><trkpt lat="51.6971231159" lon="-2.2895156778"><ele>209.22</ele><time>2012-01-18T10:58:18Z</time></trkpt><trkpt lat="51.6972190887" lon="-2.2893998399"><ele>210.19</ele><time>2012-01-18T10:58:31Z</time></trkpt><trkpt lat="51.6972728167" lon="-2.2892875224"><ele>211.63</ele><time>2012-01-18T10:58:42Z</time></trkpt><trkpt lat="51.6973153967" lon="-2.2891933098"><ele>211.63</ele><time>2012-01-18T10:58:49Z</time></trkpt><trkpt lat="51.6974010598" lon="-2.2889340576"><ele>212.11</ele><time>2012-01-18T10:59:10Z</time></trkpt><trkpt lat="51.6974293068" lon="-2.2888763901"><ele>211.15</ele><time>2012-01-18T10:59:14Z</time></trkpt><trkpt lat="51.6975111142" lon="-2.2886381764"><ele>212.59</ele><time>2012-01-18T10:59:32Z</time></trkpt><trkpt lat="51.6976074222" lon="-2.2884449735"><ele>213.07</ele><time>2012-01-18T10:59:47Z</time></trkpt><trkpt lat="51.6977283731" lon="-2.2882811911"><ele>214.99</ele><time>2012-01-18T11:00:05Z</time></trkpt><trkpt lat="51.6977717914" lon="-2.2880939394"><ele>215.47</ele><time>2012-01-18T11:00:19Z</time></trkpt><trkpt lat="51.6977873817" lon="-2.2880664468"><ele>214.51</ele><time>2012-01-18T11:00:21Z</time></trkpt><trkpt lat="51.6978931613" lon="-2.2879107948"><ele>215.47</ele><time>2012-01-18T11:00:35Z</time></trkpt><trkpt lat="51.6979494039" lon="-2.2878180072"><ele>215.95</ele><time>2012-01-18T11:00:44Z</time></trkpt><trkpt lat="51.6980273556" lon="-2.2876206972"><ele>215.47</ele><time>2012-01-18T11:01:01Z</time></trkpt><trkpt lat="51.6980736237" lon="-2.2875752673"><ele>216.91</ele><time>2012-01-18T11:01:05Z</time></trkpt><trkpt lat="51.6982645635" lon="-2.2874032706"><ele>218.36</ele><time>2012-01-18T11:01:24Z</time></trkpt><trkpt lat="51.6984068044" lon="-2.2872711718"><ele>219.80</ele><time>2012-01-18T11:01:39Z</time></trkpt><trkpt lat="51.6985314433" lon="-2.2871186212"><ele>221.24</ele><time>2012-01-18T11:01:55Z</time></trkpt><trkpt lat="51.6985717602" lon="-2.2870874405"><ele>222.20</ele><time>2012-01-18T11:02:00Z</time></trkpt><trkpt lat="51.6987484507" lon="-2.2870937269"><ele>222.20</ele><time>2012-01-18T11:02:17Z</time></trkpt><trkpt lat="51.6988157574" lon="-2.2870729398"><ele>222.68</ele><time>2012-01-18T11:02:30Z</time></trkpt><trkpt lat="51.6988117341" lon="-2.2870783880"><ele>222.20</ele><time>2012-01-18T11:02:35Z</time></trkpt><trkpt lat="51.6987650469" lon="-2.2871553339"><ele>220.76</ele><time>2012-01-18T11:02:47Z</time></trkpt><trkpt lat="51.6987624485" lon="-2.2871833295"><ele>221.72</ele><time>2012-01-18T11:02:49Z</time></trkpt><trkpt lat="51.6988018434" lon="-2.2872192040"><ele>220.76</ele><time>2012-01-18T11:03:04Z</time></trkpt><trkpt lat="51.6987958085" lon="-2.2872125823"><ele>220.28</ele><time>2012-01-18T11:03:31Z</time></trkpt><trkpt lat="51.6987737641" lon="-2.2871886939"><ele>222.68</ele><time>2012-01-18T11:03:35Z</time></trkpt><trkpt lat="51.6987458523" lon="-2.2871828265"><ele>219.80</ele><time>2012-01-18T11:03:38Z</time></trkpt><trkpt lat="51.6987435892" lon="-2.2871876042"><ele>227.01</ele><time>2012-01-18T11:03:48Z</time></trkpt><trkpt lat="51.6987435892" lon="-2.2871876042"><ele>221.72</ele><time>2012-01-18T11:03:49Z</time></trkpt><trkpt lat="51.6987435892" lon="-2.2871876042"><ele>220.28</ele><time>2012-01-18T11:03:52Z</time></trkpt><trkpt lat="51.6987435892" lon="-2.2871876042"><ele>220.76</ele><time>2012-01-18T11:04:17Z</time></trkpt><trkpt lat="51.6987621132" lon="-2.2871919628"><ele>221.24</ele><time>2012-01-18T11:04:42Z</time></trkpt><trkpt lat="51.6987627000" lon="-2.2871928010"><ele>221.72</ele><time>2012-01-18T11:05:06Z</time></trkpt><trkpt lat="51.6987627000" lon="-2.2871928010"><ele>220.76</ele><time>2012-01-18T11:05:36Z</time></trkpt><trkpt lat="51.6987641249" lon="-2.2871938907"><ele>220.76</ele><time>2012-01-18T11:06:07Z</time></trkpt><trkpt lat="51.6987706628" lon="-2.2871976625"><ele>220.76</ele><time>2012-01-18T11:06:39Z</time></trkpt><trkpt lat="51.6987742670" lon="-2.2871998418"><ele>220.76</ele><time>2012-01-18T11:07:11Z</time></trkpt><trkpt lat="51.6987715848" lon="-2.2872077208"><ele>221.24</ele><time>2012-01-18T11:07:36Z</time></trkpt><trkpt lat="51.6987733450" lon="-2.2872085590"><ele>221.24</ele><time>2012-01-18T11:08:03Z</time></trkpt><trkpt lat="51.6987721715" lon="-2.2871985845"><ele>221.24</ele><time>2012-01-18T11:08:31Z</time></trkpt><trkpt lat="51.6987721715" lon="-2.2871985845"><ele>221.24</ele><time>2012-01-18T11:08:53Z</time></trkpt><trkpt lat="51.6987725068" lon="-2.2871985845"><ele>221.24</ele><time>2012-01-18T11:09:24Z</time></trkpt><trkpt lat="51.6987682320" lon="-2.2871996742"><ele>208.26</ele><time>2012-01-18T11:09:37Z</time></trkpt><trkpt lat="51.6987637058" lon="-2.2872039489"><ele>231.81</ele><time>2012-01-18T11:09:38Z</time></trkpt><trkpt lat="51.6987571679" lon="-2.2872032784"><ele>221.24</ele><time>2012-01-18T11:09:39Z</time></trkpt><trkpt lat="51.6987478640" lon="-2.2872105706"><ele>220.76</ele><time>2012-01-18T11:10:04Z</time></trkpt><trkpt lat="51.6987554077" lon="-2.2872122470"><ele>221.72</ele><time>2012-01-18T11:10:34Z</time></trkpt><trkpt lat="51.6987787094" lon="-2.2872181144"><ele>221.24</ele><time>2012-01-18T11:11:00Z</time></trkpt><trkpt lat="51.6987806372" lon="-2.2872191202"><ele>221.24</ele><time>2012-01-18T11:11:31Z</time></trkpt><trkpt lat="51.6987961438" lon="-2.2871975787"><ele>217.40</ele><time>2012-01-18T11:11:47Z</time></trkpt><trkpt lat="51.6987961438" lon="-2.2871975787"><ele>223.64</ele><time>2012-01-18T11:11:49Z</time></trkpt><trkpt lat="51.6987961438" lon="-2.2871975787"><ele>221.24</ele><time>2012-01-18T11:11:50Z</time></trkpt><trkpt lat="51.6987961438" lon="-2.2871975787"><ele>215.47</ele><time>2012-01-18T11:11:54Z</time></trkpt><trkpt lat="51.6987961438" lon="-2.2871975787"><ele>220.76</ele><time>2012-01-18T11:11:55Z</time></trkpt><trkpt lat="51.6987961438" lon="-2.2871975787"><ele>228.93</ele><time>2012-01-18T11:11:56Z</time></trkpt><trkpt lat="51.6987930425" lon="-2.2872036975"><ele>221.24</ele><time>2012-01-18T11:11:57Z</time></trkpt><trkpt lat="51.6987930425" lon="-2.2872036975"><ele>222.20</ele><time>2012-01-18T11:12:25Z</time></trkpt><trkpt lat="51.6987930425" lon="-2.2872036975"><ele>220.76</ele><time>2012-01-18T11:12:26Z</time></trkpt><trkpt lat="51.6987839900" lon="-2.2872141749"><ele>221.72</ele><time>2012-01-18T11:12:48Z</time></trkpt><trkpt lat="51.6987847444" lon="-2.2872097325"><ele>221.72</ele><time>2012-01-18T11:13:14Z</time></trkpt><trkpt lat="51.6987847444" lon="-2.2872097325"><ele>222.68</ele><time>2012-01-18T11:13:37Z</time></trkpt><trkpt lat="51.6987830680" lon="-2.2872185335"><ele>221.72</ele><time>2012-01-18T11:14:00Z</time></trkpt><trkpt lat="51.6987830680" lon="-2.2872185335"><ele>221.72</ele><time>2012-01-18T11:14:23Z</time></trkpt><trkpt lat="51.6987852473" lon="-2.2872119118"><ele>222.20</ele><time>2012-01-18T11:14:55Z</time></trkpt><trkpt lat="51.6987750214" lon="-2.2872028593"><ele>221.24</ele><time>2012-01-18T11:15:24Z</time></trkpt><trkpt lat="51.6987685673" lon="-2.2871949803"><ele>221.72</ele><time>2012-01-18T11:15:49Z</time></trkpt><trkpt lat="51.6987601016" lon="-2.2872437630"><ele>221.72</ele><time>2012-01-18T11:16:12Z</time></trkpt><trkpt lat="51.6987750214" lon="-2.2872358002"><ele>221.24</ele><time>2012-01-18T11:16:37Z</time></trkpt><trkpt lat="51.6987750214" lon="-2.2872358002"><ele>222.20</ele><time>2012-01-18T11:17:02Z</time></trkpt><trkpt lat="51.6987711657" lon="-2.2871874366"><ele>221.72</ele><time>2012-01-18T11:17:26Z</time></trkpt><trkpt lat="51.6987711657" lon="-2.2871874366"><ele>222.20</ele><time>2012-01-18T11:17:57Z</time></trkpt><trkpt lat="51.6987703275" lon="-2.2871879395"><ele>222.68</ele><time>2012-01-18T11:18:19Z</time></trkpt><trkpt lat="51.6987700760" lon="-2.2871881071"><ele>221.24</ele><time>2012-01-18T11:18:45Z</time></trkpt><trkpt lat="51.6987700760" lon="-2.2871881071"><ele>223.16</ele><time>2012-01-18T11:19:04Z</time></trkpt><trkpt lat="51.6987829003" lon="-2.2871342115"><ele>223.64</ele><time>2012-01-18T11:19:21Z</time></trkpt><trkpt lat="51.6988293361" lon="-2.2870484646"><ele>223.64</ele><time>2012-01-18T11:19:41Z</time></trkpt><trkpt lat="51.6988644563" lon="-2.2870265879"><ele>223.64</ele><time>2012-01-18T11:20:02Z</time></trkpt><trkpt lat="51.6988937929" lon="-2.2870148532"><ele>222.68</ele><time>2012-01-18T11:20:23Z</time></trkpt><trkpt lat="51.6990230419" lon="-2.2869943175"><ele>222.20</ele><time>2012-01-18T11:20:44Z</time></trkpt><trkpt lat="51.6991874948" lon="-2.2869317047"><ele>222.20</ele><time>2012-01-18T11:21:01Z</time></trkpt><trkpt lat="51.6992715653" lon="-2.2869146895"><ele>221.72</ele><time>2012-01-18T11:21:20Z</time></trkpt><trkpt lat="51.6992737446" lon="-2.2869068105"><ele>221.72</ele><time>2012-01-18T11:21:34Z</time></trkpt><trkpt lat="51.6992760915" lon="-2.2869078163"><ele>221.24</ele><time>2012-01-18T11:21:54Z</time></trkpt><trkpt lat="51.6993121337" lon="-2.2868450359"><ele>213.55</ele><time>2012-01-18T11:22:11Z</time></trkpt><trkpt lat="51.6993152350" lon="-2.2868395876"><ele>218.84</ele><time>2012-01-18T11:22:12Z</time></trkpt><trkpt lat="51.6993179172" lon="-2.2868367378"><ele>222.68</ele><time>2012-01-18T11:22:13Z</time></trkpt><trkpt lat="51.6993179172" lon="-2.2868367378"><ele>221.72</ele><time>2012-01-18T11:22:14Z</time></trkpt><trkpt lat="51.6993221920" lon="-2.2868394200"><ele>227.49</ele><time>2012-01-18T11:22:15Z</time></trkpt><trkpt lat="51.6993289813" lon="-2.2868365701"><ele>221.72</ele><time>2012-01-18T11:22:16Z</time></trkpt><trkpt lat="51.6993382014" lon="-2.2868308704"><ele>221.72</ele><time>2012-01-18T11:22:17Z</time></trkpt><trkpt lat="51.6995329130" lon="-2.2867416870"><ele>220.28</ele><time>2012-01-18T11:22:33Z</time></trkpt><trkpt lat="51.6995563824" lon="-2.2867326345"><ele>220.28</ele><time>2012-01-18T11:22:35Z</time></trkpt><trkpt lat="51.6997800954" lon="-2.2866629809"><ele>219.32</ele><time>2012-01-18T11:22:55Z</time></trkpt><trkpt lat="51.6999349091" lon="-2.2865763959"><ele>218.36</ele><time>2012-01-18T11:23:12Z</time></trkpt><trkpt lat="51.7000833526" lon="-2.2864972707"><ele>216.43</ele><time>2012-01-18T11:23:29Z</time></trkpt><trkpt lat="51.7002354842" lon="-2.2864554450"><ele>214.51</ele><time>2012-01-18T11:23:44Z</time></trkpt><trkpt lat="51.7003508192" lon="-2.2864334006"><ele>213.55</ele><time>2012-01-18T11:23:57Z</time></trkpt><trkpt lat="51.7005837522" lon="-2.2864803392"><ele>210.67</ele><time>2012-01-18T11:24:18Z</time></trkpt><trkpt lat="51.7006676551" lon="-2.2864482366"><ele>210.19</ele><time>2012-01-18T11:24:38Z</time></trkpt><trkpt lat="51.7006676551" lon="-2.2864482366"><ele>209.70</ele><time>2012-01-18T11:24:55Z</time></trkpt><trkpt lat="51.7006711755" lon="-2.2864394356"><ele>206.34</ele><time>2012-01-18T11:25:09Z</time></trkpt><trkpt lat="51.7006711755" lon="-2.2864394356"><ele>205.38</ele><time>2012-01-18T11:25:28Z</time></trkpt><trkpt lat="51.7006711755" lon="-2.2864394356"><ele>206.34</ele><time>2012-01-18T11:25:46Z</time></trkpt><trkpt lat="51.7006833293" lon="-2.2864132840"><ele>206.82</ele><time>2012-01-18T11:26:11Z</time></trkpt><trkpt lat="51.7007037811" lon="-2.2863974422"><ele>206.34</ele><time>2012-01-18T11:26:28Z</time></trkpt><trkpt lat="51.7007037811" lon="-2.2863974422"><ele>206.34</ele><time>2012-01-18T11:26:52Z</time></trkpt><trkpt lat="51.7007801402" lon="-2.2863483243"><ele>205.38</ele><time>2012-01-18T11:27:07Z</time></trkpt><trkpt lat="51.7008233909" lon="-2.2865141183"><ele>204.90</ele><time>2012-01-18T11:27:21Z</time></trkpt><trkpt lat="51.7008612771" lon="-2.2866216581"><ele>204.90</ele><time>2012-01-18T11:27:30Z</time></trkpt><trkpt lat="51.7009302601" lon="-2.2868668288"><ele>204.90</ele><time>2012-01-18T11:27:47Z</time></trkpt><trkpt lat="51.7009506281" lon="-2.2870464530"><ele>205.86</ele><time>2012-01-18T11:28:00Z</time></trkpt><trkpt lat="51.7009491194" lon="-2.2871083114"><ele>205.86</ele><time>2012-01-18T11:28:04Z</time></trkpt><trkpt lat="51.7009263206" lon="-2.2873698268"><ele>207.30</ele><time>2012-01-18T11:28:19Z</time></trkpt><trkpt lat="51.7008861713" lon="-2.2875947133"><ele>208.26</ele><time>2012-01-18T11:28:33Z</time></trkpt><trkpt lat="51.7008732632" lon="-2.2878408898"><ele>209.22</ele><time>2012-01-18T11:28:48Z</time></trkpt><trkpt lat="51.7008801363" lon="-2.2879957035"><ele>209.70</ele><time>2012-01-18T11:29:03Z</time></trkpt><trkpt lat="51.7009073775" lon="-2.2880060133"><ele>209.70</ele><time>2012-01-18T11:29:07Z</time></trkpt><trkpt lat="51.7009258177" lon="-2.2881840449"><ele>210.67</ele><time>2012-01-18T11:29:23Z</time></trkpt><trkpt lat="51.7009849101" lon="-2.2884940915"><ele>211.63</ele><time>2012-01-18T11:29:41Z</time></trkpt><trkpt lat="51.7009942140" lon="-2.2885412816"><ele>211.63</ele><time>2012-01-18T11:29:44Z</time></trkpt><trkpt lat="51.7010248918" lon="-2.2887676768"><ele>212.11</ele><time>2012-01-18T11:29:58Z</time></trkpt><trkpt lat="51.7010021769" lon="-2.2889892943"><ele>213.07</ele><time>2012-01-18T11:30:13Z</time></trkpt><trkpt lat="51.7009970639" lon="-2.2891015280"><ele>214.51</ele><time>2012-01-18T11:30:21Z</time></trkpt><trkpt lat="51.7009836528" lon="-2.2892406676"><ele>214.51</ele><time>2012-01-18T11:30:28Z</time></trkpt><trkpt lat="51.7009668890" lon="-2.2895453498"><ele>215.95</ele><time>2012-01-18T11:30:46Z</time></trkpt><trkpt lat="51.7010154203" lon="-2.2897175141"><ele>216.43</ele><time>2012-01-18T11:30:59Z</time></trkpt><trkpt lat="51.7010494508" lon="-2.2898186836"><ele>216.91</ele><time>2012-01-18T11:31:06Z</time></trkpt><trkpt lat="51.7010901030" lon="-2.2898606770"><ele>217.40</ele><time>2012-01-18T11:31:11Z</time></trkpt><trkpt lat="51.7012325954" lon="-2.2899885010"><ele>218.36</ele><time>2012-01-18T11:31:26Z</time></trkpt><trkpt lat="51.7013113014" lon="-2.2900327574"><ele>217.88</ele><time>2012-01-18T11:31:33Z</time></trkpt><trkpt lat="51.7014589068" lon="-2.2900966275"><ele>218.36</ele><time>2012-01-18T11:31:48Z</time></trkpt><trkpt lat="51.7015036661" lon="-2.2901206836"><ele>218.36</ele><time>2012-01-18T11:32:01Z</time></trkpt><trkpt lat="51.7016757466" lon="-2.2901522834"><ele>218.36</ele><time>2012-01-18T11:32:20Z</time></trkpt><trkpt lat="51.7017916683" lon="-2.2901817039"><ele>218.36</ele><time>2012-01-18T11:32:38Z</time></trkpt><trkpt lat="51.7019581329" lon="-2.2901982162"><ele>219.32</ele><time>2012-01-18T11:32:56Z</time></trkpt><trkpt lat="51.7021587119" lon="-2.2901835479"><ele>219.32</ele><time>2012-01-18T11:33:14Z</time></trkpt><trkpt lat="51.7022962589" lon="-2.2901703883"><ele>220.28</ele><time>2012-01-18T11:33:28Z</time></trkpt><trkpt lat="51.7023176327" lon="-2.2901685443"><ele>220.28</ele><time>2012-01-18T11:33:30Z</time></trkpt><trkpt lat="51.7025194690" lon="-2.2901303228"><ele>222.20</ele><time>2012-01-18T11:33:50Z</time></trkpt><trkpt lat="51.7025747895" lon="-2.2901700530"><ele>222.20</ele><time>2012-01-18T11:33:55Z</time></trkpt><trkpt lat="51.7027328722" lon="-2.2901034169"><ele>224.12</ele><time>2012-01-18T11:34:12Z</time></trkpt><trkpt lat="51.7029327806" lon="-2.2902290616"><ele>226.05</ele><time>2012-01-18T11:34:33Z</time></trkpt><trkpt lat="51.7031627800" lon="-2.2902586497"><ele>224.61</ele><time>2012-01-18T11:34:55Z</time></trkpt><trkpt lat="51.7033657059" lon="-2.2903367691"><ele>226.05</ele><time>2012-01-18T11:35:17Z</time></trkpt><trkpt lat="51.7035332602" lon="-2.2904826980"><ele>226.53</ele><time>2012-01-18T11:35:38Z</time></trkpt><trkpt lat="51.7037128005" lon="-2.2906297166"><ele>227.01</ele><time>2012-01-18T11:35:58Z</time></trkpt><trkpt lat="51.7038066778" lon="-2.2906637471"><ele>227.49</ele><time>2012-01-18T11:36:05Z</time></trkpt><trkpt lat="51.7039072607" lon="-2.2907938343"><ele>228.45</ele><time>2012-01-18T11:36:21Z</time></trkpt><trkpt lat="51.7038727272" lon="-2.2909595445"><ele>229.41</ele><time>2012-01-18T11:36:31Z</time></trkpt><trkpt lat="51.7038496770" lon="-2.2912226524"><ele>229.41</ele><time>2012-01-18T11:36:48Z</time></trkpt><trkpt lat="51.7038099468" lon="-2.2914428450"><ele>231.33</ele><time>2012-01-18T11:37:05Z</time></trkpt><trkpt lat="51.7038057558" lon="-2.2916916199"><ele>230.85</ele><time>2012-01-18T11:37:21Z</time></trkpt><trkpt lat="51.7038275488" lon="-2.2917586751"><ele>231.33</ele><time>2012-01-18T11:37:40Z</time></trkpt><trkpt lat="51.7038828693" lon="-2.2918731719"><ele>232.30</ele><time>2012-01-18T11:37:54Z</time></trkpt><trkpt lat="51.7039630841" lon="-2.2920564003"><ele>230.85</ele><time>2012-01-18T11:38:10Z</time></trkpt><trkpt lat="51.7040530220" lon="-2.2922076937"><ele>232.30</ele><time>2012-01-18T11:38:24Z</time></trkpt><trkpt lat="51.7041219212" lon="-2.2923414689"><ele>232.30</ele><time>2012-01-18T11:38:38Z</time></trkpt><trkpt lat="51.7042094283" lon="-2.2924933489"><ele>232.78</ele><time>2012-01-18T11:38:51Z</time></trkpt><trkpt lat="51.7042314727" lon="-2.2925390303"><ele>233.26</ele><time>2012-01-18T11:38:55Z</time></trkpt><trkpt lat="51.7042235937" lon="-2.2926847916"><ele>234.22</ele><time>2012-01-18T11:39:10Z</time></trkpt><trkpt lat="51.7042235937" lon="-2.2926847916"><ele>233.74</ele><time>2012-01-18T11:39:16Z</time></trkpt><trkpt lat="51.7042523436" lon="-2.2927088477"><ele>233.74</ele><time>2012-01-18T11:39:20Z</time></trkpt><trkpt lat="51.7042892240" lon="-2.2927461471"><ele>233.26</ele><time>2012-01-18T11:39:24Z</time></trkpt><trkpt lat="51.7043748870" lon="-2.2928316426"><ele>234.22</ele><time>2012-01-18T11:39:32Z</time></trkpt><trkpt lat="51.7045203969" lon="-2.2931069043"><ele>234.70</ele><time>2012-01-18T11:39:50Z</time></trkpt><trkpt lat="51.7046597041" lon="-2.2933642287"><ele>235.18</ele><time>2012-01-18T11:40:08Z</time></trkpt><trkpt lat="51.7047732789" lon="-2.2935678251"><ele>236.14</ele><time>2012-01-18T11:40:24Z</time></trkpt><trkpt lat="51.7048711795" lon="-2.2937427554"><ele>235.66</ele><time>2012-01-18T11:40:39Z</time></trkpt><trkpt lat="51.7049560882" lon="-2.2938974015"><ele>236.14</ele><time>2012-01-18T11:40:53Z</time></trkpt><trkpt lat="51.7050510552" lon="-2.2940969747"><ele>237.58</ele><time>2012-01-18T11:41:11Z</time></trkpt><trkpt lat="51.7051630374" lon="-2.2942581587"><ele>238.06</ele><time>2012-01-18T11:41:27Z</time></trkpt><trkpt lat="51.7052207887" lon="-2.2945005633"><ele>238.06</ele><time>2012-01-18T11:41:45Z</time></trkpt><trkpt lat="51.7052797973" lon="-2.2947328258"><ele>238.06</ele><time>2012-01-18T11:42:02Z</time></trkpt><trkpt lat="51.7052958906" lon="-2.2948124539"><ele>238.06</ele><time>2012-01-18T11:42:08Z</time></trkpt><trkpt lat="51.7053531390" lon="-2.2949845344"><ele>237.58</ele><time>2012-01-18T11:42:24Z</time></trkpt><trkpt lat="51.7053590901" lon="-2.2950145416"><ele>239.02</ele><time>2012-01-18T11:42:26Z</time></trkpt><trkpt lat="51.7053964734" lon="-2.2952255979"><ele>239.51</ele><time>2012-01-18T11:42:42Z</time></trkpt><trkpt lat="51.7054129858" lon="-2.2953252587"><ele>238.06</ele><time>2012-01-18T11:42:48Z</time></trkpt><trkpt lat="51.7054425739" lon="-2.2955749556"><ele>237.58</ele><time>2012-01-18T11:43:08Z</time></trkpt><trkpt lat="51.7054926977" lon="-2.2958731838"><ele>238.54</ele><time>2012-01-18T11:43:27Z</time></trkpt><trkpt lat="51.7055316735" lon="-2.2960412409"><ele>239.51</ele><time>2012-01-18T11:43:42Z</time></trkpt><trkpt lat="51.7055560648" lon="-2.2963897604"><ele>238.54</ele><time>2012-01-18T11:44:02Z</time></trkpt><trkpt lat="51.7055784445" lon="-2.2967233602"><ele>238.06</ele><time>2012-01-18T11:44:22Z</time></trkpt><trkpt lat="51.7055789474" lon="-2.2968490887"><ele>237.58</ele><time>2012-01-18T11:44:38Z</time></trkpt><trkpt lat="51.7055958789" lon="-2.2970412858"><ele>237.58</ele><time>2012-01-18T11:44:53Z</time></trkpt><trkpt lat="51.7055988126" lon="-2.2970619891"><ele>238.06</ele><time>2012-01-18T11:44:54Z</time></trkpt><trkpt lat="51.7055806238" lon="-2.2973008733"><ele>238.06</ele><time>2012-01-18T11:45:01Z</time></trkpt><trkpt lat="51.7055831384" lon="-2.2976929788"><ele>238.06</ele><time>2012-01-18T11:45:19Z</time></trkpt><trkpt lat="51.7055812944" lon="-2.2979733534"><ele>236.14</ele><time>2012-01-18T11:45:35Z</time></trkpt><trkpt lat="51.7055802885" lon="-2.2981441766"><ele>235.18</ele><time>2012-01-18T11:45:46Z</time></trkpt><trkpt lat="51.7056026682" lon="-2.2982086334"><ele>235.66</ele><time>2012-01-18T11:45:51Z</time></trkpt><trkpt lat="51.7056329269" lon="-2.2983587533"><ele>235.66</ele><time>2012-01-18T11:46:11Z</time></trkpt><trkpt lat="51.7056312505" lon="-2.2983756009"><ele>235.66</ele><time>2012-01-18T11:46:26Z</time></trkpt><trkpt lat="51.7056325916" lon="-2.2983765230"><ele>235.66</ele><time>2012-01-18T11:46:44Z</time></trkpt><trkpt lat="51.7056493554" lon="-2.2984194383"><ele>233.74</ele><time>2012-01-18T11:46:47Z</time></trkpt><trkpt lat="51.7057005689" lon="-2.2985232063"><ele>233.74</ele><time>2012-01-18T11:47:02Z</time></trkpt><trkpt lat="51.7057076097" lon="-2.2985599190"><ele>233.26</ele><time>2012-01-18T11:47:17Z</time></trkpt><trkpt lat="51.7059271317" lon="-2.2986125574"><ele>233.74</ele><time>2012-01-18T11:47:35Z</time></trkpt><trkpt lat="51.7060177401" lon="-2.2986335959"><ele>233.26</ele><time>2012-01-18T11:47:54Z</time></trkpt><trkpt lat="51.7060177401" lon="-2.2986335959"><ele>233.26</ele><time>2012-01-18T11:48:15Z</time></trkpt><trkpt lat="51.7060258705" lon="-2.2986135632"><ele>234.22</ele><time>2012-01-18T11:48:21Z</time></trkpt><trkpt lat="51.7059045844" lon="-2.2986162454"><ele>234.22</ele><time>2012-01-18T11:48:39Z</time></trkpt><trkpt lat="51.7057508603" lon="-2.2986169159"><ele>233.74</ele><time>2012-01-18T11:48:54Z</time></trkpt><trkpt lat="51.7055823840" lon="-2.2985626850"><ele>235.18</ele><time>2012-01-18T11:49:09Z</time></trkpt><trkpt lat="51.7055434920" lon="-2.2985346895"><ele>234.70</ele><time>2012-01-18T11:49:13Z</time></trkpt><trkpt lat="51.7054698151" lon="-2.2985508665"><ele>236.14</ele><time>2012-01-18T11:49:19Z</time></trkpt><trkpt lat="51.7053548153" lon="-2.2985617630"><ele>235.66</ele><time>2012-01-18T11:49:31Z</time></trkpt><trkpt lat="51.7051587626" lon="-2.2985400539"><ele>235.18</ele><time>2012-01-18T11:49:49Z</time></trkpt><trkpt lat="51.7051455192" lon="-2.2985337675"><ele>234.70</ele><time>2012-01-18T11:49:50Z</time></trkpt><trkpt lat="51.7049919628" lon="-2.2985347733"><ele>235.66</ele><time>2012-01-18T11:50:07Z</time></trkpt><trkpt lat="51.7048004363" lon="-2.2985318396"><ele>236.14</ele><time>2012-01-18T11:50:25Z</time></trkpt><trkpt lat="51.7046913877" lon="-2.2985180933"><ele>236.14</ele><time>2012-01-18T11:50:38Z</time></trkpt><trkpt lat="51.7044809181" lon="-2.2985448316"><ele>236.62</ele><time>2012-01-18T11:50:57Z</time></trkpt><trkpt lat="51.7043993622" lon="-2.2985789459"><ele>237.58</ele><time>2012-01-18T11:51:07Z</time></trkpt><trkpt lat="51.7042503320" lon="-2.2985892557"><ele>237.58</ele><time>2012-01-18T11:51:25Z</time></trkpt><trkpt lat="51.7042269465" lon="-2.2986072768"><ele>237.10</ele><time>2012-01-18T11:51:30Z</time></trkpt><trkpt lat="51.7041494977" lon="-2.2985993139"><ele>237.10</ele><time>2012-01-18T11:51:36Z</time></trkpt><trkpt lat="51.7039732262" lon="-2.2986362781"><ele>237.58</ele><time>2012-01-18T11:51:53Z</time></trkpt><trkpt lat="51.7038417980" lon="-2.2986583225"><ele>238.06</ele><time>2012-01-18T11:52:07Z</time></trkpt><trkpt lat="51.7037088610" lon="-2.2986834683"><ele>238.54</ele><time>2012-01-18T11:52:20Z</time></trkpt><trkpt lat="51.7035700567" lon="-2.2987229470"><ele>239.99</ele><time>2012-01-18T11:52:35Z</time></trkpt><trkpt lat="51.7034607567" lon="-2.2987370286"><ele>240.47</ele><time>2012-01-18T11:52:48Z</time></trkpt><trkpt lat="51.7033572402" lon="-2.2987516969"><ele>239.99</ele><time>2012-01-18T11:52:58Z</time></trkpt><trkpt lat="51.7031326890" lon="-2.2988086101"><ele>240.95</ele><time>2012-01-18T11:53:22Z</time></trkpt><trkpt lat="51.7029289249" lon="-2.2988682892"><ele>241.43</ele><time>2012-01-18T11:53:43Z</time></trkpt><trkpt lat="51.7027886119" lon="-2.2989256214"><ele>240.95</ele><time>2012-01-18T11:54:03Z</time></trkpt><trkpt lat="51.7026675772" lon="-2.2990662698"><ele>240.47</ele><time>2012-01-18T11:54:17Z</time></trkpt><trkpt lat="51.7025016993" lon="-2.2990904935"><ele>240.47</ele><time>2012-01-18T11:54:34Z</time></trkpt><trkpt lat="51.7024613824" lon="-2.2990993783"><ele>241.43</ele><time>2012-01-18T11:54:37Z</time></trkpt><trkpt lat="51.7023053113" lon="-2.2991272900"><ele>241.43</ele><time>2012-01-18T11:54:51Z</time></trkpt><trkpt lat="51.7020878848" lon="-2.2991303913"><ele>241.91</ele><time>2012-01-18T11:55:11Z</time></trkpt><trkpt lat="51.7019926663" lon="-2.2991521005"><ele>239.99</ele><time>2012-01-18T11:55:26Z</time></trkpt><trkpt lat="51.7019590549" lon="-2.2991421260"><ele>237.10</ele><time>2012-01-18T11:55:44Z</time></trkpt><trkpt lat="51.7018515151" lon="-2.2992819361"><ele>233.74</ele><time>2012-01-18T11:56:01Z</time></trkpt><trkpt lat="51.7018080968" lon="-2.2993396875"><ele>230.37</ele><time>2012-01-18T11:56:13Z</time></trkpt><trkpt lat="51.7017801013" lon="-2.2993798368"><ele>228.93</ele><time>2012-01-18T11:56:16Z</time></trkpt><trkpt lat="51.7017261218" lon="-2.2994494904"><ele>226.05</ele><time>2012-01-18T11:56:29Z</time></trkpt><trkpt lat="51.7017261218" lon="-2.2994494904"><ele>224.61</ele><time>2012-01-18T11:56:32Z</time></trkpt><trkpt lat="51.7017060891" lon="-2.2995093372"><ele>223.64</ele><time>2012-01-18T11:56:52Z</time></trkpt><trkpt lat="51.7016994674" lon="-2.2994936630"><ele>222.68</ele><time>2012-01-18T11:57:13Z</time></trkpt><trkpt lat="51.7016149778" lon="-2.2995502409"><ele>222.20</ele><time>2012-01-18T11:57:31Z</time></trkpt><trkpt lat="51.7015319970" lon="-2.2996892128"><ele>220.28</ele><time>2012-01-18T11:57:53Z</time></trkpt><trkpt lat="51.7014169134" lon="-2.2998796497"><ele>216.91</ele><time>2012-01-18T11:58:08Z</time></trkpt><trkpt lat="51.7013149057" lon="-2.3000109103"><ele>214.51</ele><time>2012-01-18T11:58:23Z</time></trkpt><trkpt lat="51.7012538854" lon="-2.3001155164"><ele>211.63</ele><time>2012-01-18T11:58:41Z</time></trkpt><trkpt lat="51.7011380475" lon="-2.3002629541"><ele>208.74</ele><time>2012-01-18T11:58:59Z</time></trkpt><trkpt lat="51.7010930367" lon="-2.3003153410"><ele>206.82</ele><time>2012-01-18T11:59:17Z</time></trkpt><trkpt lat="51.7010436673" lon="-2.3004137445"><ele>203.94</ele><time>2012-01-18T11:59:31Z</time></trkpt><trkpt lat="51.7009751033" lon="-2.3006376252"><ele>200.57</ele><time>2012-01-18T11:59:46Z</time></trkpt><trkpt lat="51.7008273304" lon="-2.3008926027"><ele>198.17</ele><time>2012-01-18T12:00:04Z</time></trkpt><trkpt lat="51.7007752787" lon="-2.3010181636"><ele>194.80</ele><time>2012-01-18T12:00:19Z</time></trkpt><trkpt lat="51.7007150128" lon="-2.3011449818"><ele>191.92</ele><time>2012-01-18T12:00:34Z</time></trkpt><trkpt lat="51.7006541602" lon="-2.3013101891"><ele>188.56</ele><time>2012-01-18T12:00:52Z</time></trkpt><trkpt lat="51.7005714308" lon="-2.3014742229"><ele>186.63</ele><time>2012-01-18T12:01:11Z</time></trkpt><trkpt lat="51.7005384900" lon="-2.3016704433"><ele>183.75</ele><time>2012-01-18T12:01:29Z</time></trkpt><trkpt lat="51.7004682496" lon="-2.3018089123"><ele>180.87</ele><time>2012-01-18T12:01:45Z</time></trkpt><trkpt lat="51.7004048824" lon="-2.3020140175"><ele>177.98</ele><time>2012-01-18T12:02:04Z</time></trkpt><trkpt lat="51.7004353087" lon="-2.3021546658"><ele>177.02</ele><time>2012-01-18T12:02:21Z</time></trkpt><trkpt lat="51.7004353087" lon="-2.3021546658"><ele>176.54</ele><time>2012-01-18T12:02:44Z</time></trkpt><trkpt lat="51.7004399188" lon="-2.3022015207"><ele>177.50</ele><time>2012-01-18T12:03:05Z</time></trkpt><trkpt lat="51.7004223168" lon="-2.3022788856"><ele>178.94</ele><time>2012-01-18T12:03:21Z</time></trkpt><trkpt lat="51.7002744600" lon="-2.3025558237"><ele>178.46</ele><time>2012-01-18T12:03:42Z</time></trkpt><trkpt lat="51.7001823429" lon="-2.3026896827"><ele>179.90</ele><time>2012-01-18T12:04:06Z</time></trkpt><trkpt lat="51.7001823429" lon="-2.3026896827"><ele>180.87</ele><time>2012-01-18T12:04:08Z</time></trkpt><trkpt lat="51.7001823429" lon="-2.3026896827"><ele>179.90</ele><time>2012-01-18T12:04:10Z</time></trkpt><trkpt lat="51.7001770623" lon="-2.3027272336"><ele>183.27</ele><time>2012-01-18T12:04:13Z</time></trkpt><trkpt lat="51.7001770623" lon="-2.3027272336"><ele>183.75</ele><time>2012-01-18T12:04:18Z</time></trkpt><trkpt lat="51.7001101747" lon="-2.3028877471"><ele>183.75</ele><time>2012-01-18T12:04:22Z</time></trkpt><trkpt lat="51.7000339832" lon="-2.3032003921"><ele>184.71</ele><time>2012-01-18T12:04:39Z</time></trkpt><trkpt lat="51.7001312133" lon="-2.3034043238"><ele>183.75</ele><time>2012-01-18T12:04:59Z</time></trkpt><trkpt lat="51.6999776568" lon="-2.3038559407"><ele>183.27</ele><time>2012-01-18T12:05:18Z</time></trkpt><trkpt lat="51.6999458056" lon="-2.3040068988"><ele>183.75</ele><time>2012-01-18T12:05:26Z</time></trkpt><trkpt lat="51.6998904012" lon="-2.3042695038"><ele>182.79</ele><time>2012-01-18T12:05:36Z</time></trkpt><trkpt lat="51.6998620704" lon="-2.3046108987"><ele>182.31</ele><time>2012-01-18T12:05:55Z</time></trkpt><trkpt lat="51.6998117790" lon="-2.3049699795"><ele>182.31</ele><time>2012-01-18T12:06:13Z</time></trkpt><trkpt lat="51.6997999605" lon="-2.3051861487"><ele>182.31</ele><time>2012-01-18T12:06:32Z</time></trkpt><trkpt lat="51.6998373438" lon="-2.3053647671"><ele>183.75</ele><time>2012-01-18T12:06:50Z</time></trkpt><trkpt lat="51.6998433787" lon="-2.3056528531"><ele>183.27</ele><time>2012-01-18T12:07:10Z</time></trkpt><trkpt lat="51.6999234259" lon="-2.3059506621"><ele>182.79</ele><time>2012-01-18T12:07:28Z</time></trkpt><trkpt lat="51.6999023873" lon="-2.3060845211"><ele>181.83</ele><time>2012-01-18T12:07:49Z</time></trkpt><trkpt lat="51.6997998767" lon="-2.3062700126"><ele>182.31</ele><time>2012-01-18T12:08:07Z</time></trkpt><trkpt lat="51.6998001281" lon="-2.3063912150"><ele>183.27</ele><time>2012-01-18T12:08:21Z</time></trkpt><trkpt lat="51.6997363418" lon="-2.3065079749"><ele>183.27</ele><time>2012-01-18T12:08:36Z</time></trkpt><trkpt lat="51.6996692028" lon="-2.3066096473"><ele>187.11</ele><time>2012-01-18T12:08:50Z</time></trkpt><trkpt lat="51.6996692028" lon="-2.3066096473"><ele>187.11</ele><time>2012-01-18T12:08:55Z</time></trkpt><trkpt lat="51.6996260360" lon="-2.3066766188"><ele>190.00</ele><time>2012-01-18T12:09:18Z</time></trkpt><trkpt lat="51.6995230224" lon="-2.3067967314"><ele>189.04</ele><time>2012-01-18T12:09:36Z</time></trkpt><trkpt lat="51.6994793527" lon="-2.3068368807"><ele>191.92</ele><time>2012-01-18T12:09:39Z</time></trkpt><trkpt lat="51.6993828770" lon="-2.3068174347"><ele>191.44</ele><time>2012-01-18T12:10:00Z</time></trkpt><trkpt lat="51.6992086172" lon="-2.3069660459"><ele>194.80</ele><time>2012-01-18T12:10:14Z</time></trkpt><trkpt lat="51.6991131473" lon="-2.3070171755"><ele>196.25</ele><time>2012-01-18T12:10:23Z</time></trkpt><trkpt lat="51.6991131473" lon="-2.3070171755"><ele>197.21</ele><time>2012-01-18T12:10:35Z</time></trkpt><trkpt lat="51.6991131473" lon="-2.3070171755"><ele>196.25</ele><time>2012-01-18T12:10:37Z</time></trkpt><trkpt lat="51.6989738401" lon="-2.3071016651"><ele>197.21</ele><time>2012-01-18T12:11:00Z</time></trkpt><trkpt lat="51.6987829842" lon="-2.3071883339"><ele>196.73</ele><time>2012-01-18T12:11:17Z</time></trkpt><trkpt lat="51.6985091474" lon="-2.3073634319"><ele>197.21</ele><time>2012-01-18T12:11:37Z</time></trkpt><trkpt lat="51.6984399129" lon="-2.3073687963"><ele>198.17</ele><time>2012-01-18T12:11:42Z</time></trkpt><trkpt lat="51.6982352268" lon="-2.3074243683"><ele>198.65</ele><time>2012-01-18T12:11:57Z</time></trkpt><trkpt lat="51.6981897969" lon="-2.3074528668"><ele>200.57</ele><time>2012-01-18T12:12:16Z</time></trkpt><trkpt lat="51.6981777269" lon="-2.3074519448"><ele>201.05</ele><time>2012-01-18T12:12:22Z</time></trkpt><trkpt lat="51.6981777269" lon="-2.3074519448"><ele>207.30</ele><time>2012-01-18T12:12:27Z</time></trkpt><trkpt lat="51.6981777269" lon="-2.3074519448"><ele>199.61</ele><time>2012-01-18T12:12:28Z</time></trkpt><trkpt lat="51.6981777269" lon="-2.3074519448"><ele>202.98</ele><time>2012-01-18T12:12:29Z</time></trkpt><trkpt lat="51.6981777269" lon="-2.3074519448"><ele>202.01</ele><time>2012-01-18T12:12:34Z</time></trkpt><trkpt lat="51.6981227417" lon="-2.3074852210"><ele>203.46</ele><time>2012-01-18T12:12:59Z</time></trkpt><trkpt lat="51.6979039740" lon="-2.3075957783"><ele>203.94</ele><time>2012-01-18T12:13:23Z</time></trkpt><trkpt lat="51.6978955083" lon="-2.3076106980"><ele>202.98</ele><time>2012-01-18T12:13:47Z</time></trkpt><trkpt lat="51.6976684425" lon="-2.3078646697"><ele>200.57</ele><time>2012-01-18T12:14:05Z</time></trkpt><trkpt lat="51.6975449771" lon="-2.3079904821"><ele>200.57</ele><time>2012-01-18T12:14:12Z</time></trkpt><trkpt lat="51.6973443981" lon="-2.3082553502"><ele>199.61</ele><time>2012-01-18T12:14:30Z</time></trkpt><trkpt lat="51.6972330026" lon="-2.3083186336"><ele>199.61</ele><time>2012-01-18T12:14:53Z</time></trkpt><trkpt lat="51.6971611697" lon="-2.3084739503"><ele>201.05</ele><time>2012-01-18T12:15:04Z</time></trkpt><trkpt lat="51.6971047595" lon="-2.3085296899"><ele>201.05</ele><time>2012-01-18T12:15:08Z</time></trkpt><trkpt lat="51.6970688011" lon="-2.3085874412"><ele>200.09</ele><time>2012-01-18T12:15:11Z</time></trkpt><trkpt lat="51.6970356926" lon="-2.3086954001"><ele>200.57</ele><time>2012-01-18T12:15:28Z</time></trkpt><trkpt lat="51.6969624348" lon="-2.3088830709"><ele>199.61</ele><time>2012-01-18T12:15:49Z</time></trkpt><trkpt lat="51.6969339363" lon="-2.3089199513"><ele>199.61</ele><time>2012-01-18T12:16:09Z</time></trkpt><trkpt lat="51.6968922783" lon="-2.3089996632"><ele>200.09</ele><time>2012-01-18T12:16:30Z</time></trkpt><trkpt lat="51.6968922783" lon="-2.3089996632"><ele>202.01</ele><time>2012-01-18T12:16:34Z</time></trkpt><trkpt lat="51.6968412325" lon="-2.3091782816"><ele>201.05</ele><time>2012-01-18T12:16:52Z</time></trkpt><trkpt lat="51.6968171764" lon="-2.3092306685"><ele>202.49</ele><time>2012-01-18T12:16:54Z</time></trkpt><trkpt lat="51.6967930365" lon="-2.3092708178"><ele>203.46</ele><time>2012-01-18T12:16:56Z</time></trkpt><trkpt lat="51.6966663022" lon="-2.3094379529"><ele>205.38</ele><time>2012-01-18T12:17:06Z</time></trkpt><trkpt lat="51.6965362150" lon="-2.3095821217"><ele>204.42</ele><time>2012-01-18T12:17:17Z</time></trkpt><trkpt lat="51.6965236422" lon="-2.3095906712"><ele>203.94</ele><time>2012-01-18T12:17:18Z</time></trkpt><trkpt lat="51.6964727640" lon="-2.3096272163"><ele>205.86</ele><time>2012-01-18T12:17:22Z</time></trkpt><trkpt lat="51.6962432675" lon="-2.3098212574"><ele>203.94</ele><time>2012-01-18T12:17:39Z</time></trkpt><trkpt lat="51.6961799841" lon="-2.3098122887"><ele>204.42</ele><time>2012-01-18T12:17:44Z</time></trkpt><trkpt lat="51.6959644016" lon="-2.3099433817"><ele>202.49</ele><time>2012-01-18T12:18:03Z</time></trkpt><trkpt lat="51.6959227435" lon="-2.3099510092"><ele>204.42</ele><time>2012-01-18T12:18:06Z</time></trkpt><trkpt lat="51.6958901379" lon="-2.3099673539"><ele>202.49</ele><time>2012-01-18T12:18:09Z</time></trkpt><trkpt lat="51.6955826897" lon="-2.3100077547"><ele>202.98</ele><time>2012-01-18T12:18:31Z</time></trkpt><trkpt lat="51.6952785105" lon="-2.3100060783"><ele>203.94</ele><time>2012-01-18T12:18:53Z</time></trkpt><trkpt lat="51.6952532809" lon="-2.3100017197"><ele>200.57</ele><time>2012-01-18T12:18:55Z</time></trkpt><trkpt lat="51.6952147242" lon="-2.3099972773"><ele>203.94</ele><time>2012-01-18T12:18:58Z</time></trkpt><trkpt lat="51.6951271333" lon="-2.3100235127"><ele>203.46</ele><time>2012-01-18T12:19:17Z</time></trkpt><trkpt lat="51.6951297317" lon="-2.3100322299"><ele>207.78</ele><time>2012-01-18T12:19:31Z</time></trkpt><trkpt lat="51.6951297317" lon="-2.3100322299"><ele>207.78</ele><time>2012-01-18T12:19:32Z</time></trkpt><trkpt lat="51.6951297317" lon="-2.3100322299"><ele>204.42</ele><time>2012-01-18T12:19:33Z</time></trkpt><trkpt lat="51.6951297317" lon="-2.3100322299"><ele>207.78</ele><time>2012-01-18T12:19:38Z</time></trkpt><trkpt lat="51.6951297317" lon="-2.3100322299"><ele>203.94</ele><time>2012-01-18T12:19:39Z</time></trkpt><trkpt lat="51.6951297317" lon="-2.3100322299"><ele>208.26</ele><time>2012-01-18T12:19:41Z</time></trkpt><trkpt lat="51.6951297317" lon="-2.3100322299"><ele>204.90</ele><time>2012-01-18T12:19:42Z</time></trkpt><trkpt lat="51.6951297317" lon="-2.3100322299"><ele>207.78</ele><time>2012-01-18T12:19:45Z</time></trkpt><trkpt lat="51.6950047575" lon="-2.3100115266"><ele>211.15</ele><time>2012-01-18T12:20:02Z</time></trkpt><trkpt lat="51.6949784383" lon="-2.3100189865"><ele>211.15</ele><time>2012-01-18T12:20:28Z</time></trkpt><trkpt lat="51.6944435053" lon="-2.3101401888"><ele>213.07</ele><time>2012-01-18T12:20:52Z</time></trkpt><trkpt lat="51.6942471173" lon="-2.3102048971"><ele>210.67</ele><time>2012-01-18T12:21:06Z</time></trkpt><trkpt lat="51.6940857656" lon="-2.3102010414"><ele>210.19</ele><time>2012-01-18T12:21:21Z</time></trkpt><trkpt lat="51.6939001903" lon="-2.3101392668"><ele>206.82</ele><time>2012-01-18T12:21:39Z</time></trkpt><trkpt lat="51.6936749686" lon="-2.3100714572"><ele>206.34</ele><time>2012-01-18T12:21:56Z</time></trkpt><trkpt lat="51.6935299616" lon="-2.3100497480"><ele>204.42</ele><time>2012-01-18T12:22:10Z</time></trkpt><trkpt lat="51.6933992039" lon="-2.3100499157"><ele>202.98</ele><time>2012-01-18T12:22:22Z</time></trkpt><trkpt lat="51.6933107749" lon="-2.3100358341"><ele>203.46</ele><time>2012-01-18T12:22:38Z</time></trkpt><trkpt lat="51.6931025684" lon="-2.3100056592"><ele>203.94</ele><time>2012-01-18T12:22:56Z</time></trkpt><trkpt lat="51.6930688731" lon="-2.3099845368"><ele>207.78</ele><time>2012-01-18T12:23:04Z</time></trkpt><trkpt lat="51.6930362675" lon="-2.3099458963"><ele>206.82</ele><time>2012-01-18T12:23:08Z</time></trkpt><trkpt lat="51.6929309070" lon="-2.3098345846"><ele>208.26</ele><time>2012-01-18T12:23:28Z</time></trkpt><trkpt lat="51.6929181665" lon="-2.3098229337"><ele>209.22</ele><time>2012-01-18T12:23:31Z</time></trkpt><trkpt lat="51.6927407216" lon="-2.3097966984"><ele>210.67</ele><time>2012-01-18T12:23:46Z</time></trkpt><trkpt lat="51.6926200222" lon="-2.3097987100"><ele>213.07</ele><time>2012-01-18T12:24:01Z</time></trkpt><trkpt lat="51.6925159190" lon="-2.3098137137"><ele>213.55</ele><time>2012-01-18T12:24:17Z</time></trkpt><trkpt lat="51.6924826428" lon="-2.3098612390"><ele>213.55</ele><time>2012-01-18T12:24:34Z</time></trkpt><trkpt lat="51.6924435832" lon="-2.3098737281"><ele>214.51</ele><time>2012-01-18T12:24:37Z</time></trkpt><trkpt lat="51.6923668049" lon="-2.3098059185"><ele>217.88</ele><time>2012-01-18T12:24:51Z</time></trkpt><trkpt lat="51.6923652124" lon="-2.3098411225"><ele>215.95</ele><time>2012-01-18T12:25:02Z</time></trkpt><trkpt lat="51.6923682299" lon="-2.3098467384"><ele>216.43</ele><time>2012-01-18T12:25:20Z</time></trkpt><trkpt lat="51.6923679784" lon="-2.3098397814"><ele>216.43</ele><time>2012-01-18T12:25:39Z</time></trkpt><trkpt lat="51.6923554055" lon="-2.3098298069"><ele>215.95</ele><time>2012-01-18T12:25:56Z</time></trkpt><trkpt lat="51.6923637036" lon="-2.3096015677"><ele>218.36</ele><time>2012-01-18T12:26:09Z</time></trkpt><trkpt lat="51.6923533101" lon="-2.3095293995"><ele>218.36</ele><time>2012-01-18T12:26:16Z</time></trkpt><trkpt lat="51.6923103947" lon="-2.3094856460"><ele>219.32</ele><time>2012-01-18T12:26:27Z</time></trkpt><trkpt lat="51.6922404896" lon="-2.3094538786"><ele>219.32</ele><time>2012-01-18T12:26:34Z</time></trkpt><trkpt lat="51.6921116598" lon="-2.3094611708"><ele>219.80</ele><time>2012-01-18T12:26:45Z</time></trkpt><trkpt lat="51.6919700056" lon="-2.3094163276"><ele>219.80</ele><time>2012-01-18T12:27:00Z</time></trkpt><trkpt lat="51.6918273456" lon="-2.3094535433"><ele>220.76</ele><time>2012-01-18T12:27:14Z</time></trkpt><trkpt lat="51.6917000245" lon="-2.3095765896"><ele>221.72</ele><time>2012-01-18T12:27:31Z</time></trkpt><trkpt lat="51.6916947439" lon="-2.3095936887"><ele>222.20</ele><time>2012-01-18T12:27:46Z</time></trkpt><trkpt lat="51.6916717775" lon="-2.3096224386"><ele>222.20</ele><time>2012-01-18T12:28:07Z</time></trkpt><trkpt lat="51.6916550975" lon="-2.3096506018"><ele>222.20</ele><time>2012-01-18T12:28:09Z</time></trkpt><trkpt lat="51.6915991902" lon="-2.3096340895"><ele>222.20</ele><time>2012-01-18T12:28:13Z</time></trkpt><trkpt lat="51.6915659141" lon="-2.3096009810"><ele>222.20</ele><time>2012-01-18T12:28:22Z</time></trkpt><trkpt lat="51.6914732102" lon="-2.3095986340"><ele>220.76</ele><time>2012-01-18T12:28:29Z</time></trkpt><trkpt lat="51.6914386768" lon="-2.3095849715"><ele>220.28</ele><time>2012-01-18T12:28:32Z</time></trkpt><trkpt lat="51.6913929116" lon="-2.3095556349"><ele>220.28</ele><time>2012-01-18T12:28:37Z</time></trkpt><trkpt lat="51.6913250182" lon="-2.3095291480"><ele>219.80</ele><time>2012-01-18T12:28:41Z</time></trkpt><trkpt lat="51.6912453901" lon="-2.3095191736"><ele>219.32</ele><time>2012-01-18T12:28:46Z</time></trkpt><trkpt lat="51.6911956854" lon="-2.3095127195"><ele>218.84</ele><time>2012-01-18T12:28:51Z</time></trkpt><trkpt lat="51.6911222599" lon="-2.3094987217"><ele>219.80</ele><time>2012-01-18T12:28:56Z</time></trkpt><trkpt lat="51.6910269577" lon="-2.3094785213"><ele>218.84</ele><time>2012-01-18T12:29:05Z</time></trkpt><trkpt lat="51.6909485031" lon="-2.3094392102"><ele>218.84</ele><time>2012-01-18T12:29:12Z</time></trkpt><trkpt lat="51.6908392031" lon="-2.3093629349"><ele>218.84</ele><time>2012-01-18T12:29:21Z</time></trkpt><trkpt lat="51.6907759197" lon="-2.3093020823"><ele>218.84</ele><time>2012-01-18T12:29:26Z</time></trkpt><trkpt lat="51.6906568129" lon="-2.3093146551"><ele>218.36</ele><time>2012-01-18T12:29:35Z</time></trkpt><trkpt lat="51.6905660369" lon="-2.3093014117"><ele>218.36</ele><time>2012-01-18T12:29:44Z</time></trkpt><trkpt lat="51.6904953774" lon="-2.3092615977"><ele>218.36</ele><time>2012-01-18T12:29:51Z</time></trkpt><trkpt lat="51.6904469300" lon="-2.3092456721"><ele>218.36</ele><time>2012-01-18T12:29:55Z</time></trkpt><trkpt lat="51.6904111393" lon="-2.3091998231"><ele>218.84</ele><time>2012-01-18T12:29:59Z</time></trkpt><trkpt lat="51.6903586686" lon="-2.3091770243"><ele>218.84</ele><time>2012-01-18T12:30:03Z</time></trkpt><trkpt lat="51.6903367080" lon="-2.3091764376"><ele>219.80</ele><time>2012-01-18T12:30:05Z</time></trkpt><trkpt lat="51.6903148312" lon="-2.3091678880"><ele>219.32</ele><time>2012-01-18T12:30:08Z</time></trkpt><trkpt lat="51.6902479436" lon="-2.3091144953"><ele>219.32</ele><time>2012-01-18T12:30:13Z</time></trkpt><trkpt lat="51.6901974846" lon="-2.3090634495"><ele>218.84</ele><time>2012-01-18T12:30:18Z</time></trkpt><trkpt lat="51.6900735162" lon="-2.3089358769"><ele>218.84</ele><time>2012-01-18T12:30:29Z</time></trkpt><trkpt lat="51.6900150105" lon="-2.3089083843"><ele>218.84</ele><time>2012-01-18T12:30:34Z</time></trkpt><trkpt lat="51.6899575107" lon="-2.3088675644"><ele>218.36</ele><time>2012-01-18T12:30:39Z</time></trkpt><trkpt lat="51.6899109911" lon="-2.3088352941"><ele>219.32</ele><time>2012-01-18T12:30:44Z</time></trkpt><trkpt lat="51.6898285132" lon="-2.3088178597"><ele>218.84</ele><time>2012-01-18T12:30:52Z</time></trkpt><trkpt lat="51.6897798143" lon="-2.3087715078"><ele>218.84</ele><time>2012-01-18T12:30:56Z</time></trkpt><trkpt lat="51.6897084843" lon="-2.3087388184"><ele>218.84</ele><time>2012-01-18T12:31:03Z</time></trkpt><trkpt lat="51.6896349750" lon="-2.3086341284"><ele>217.40</ele><time>2012-01-18T12:31:16Z</time></trkpt><trkpt lat="51.6896104999" lon="-2.3086334579"><ele>217.88</ele><time>2012-01-18T12:31:20Z</time></trkpt><trkpt lat="51.6895533353" lon="-2.3085377365"><ele>215.95</ele><time>2012-01-18T12:31:31Z</time></trkpt><trkpt lat="51.6894969251" lon="-2.3084310349"><ele>214.03</ele><time>2012-01-18T12:31:46Z</time></trkpt><trkpt lat="51.6895173769" lon="-2.3084222339"><ele>213.55</ele><time>2012-01-18T12:31:48Z</time></trkpt><trkpt lat="51.6895295307" lon="-2.3083125986"><ele>212.11</ele><time>2012-01-18T12:31:55Z</time></trkpt><trkpt lat="51.6895237472" lon="-2.3082763888"><ele>211.15</ele><time>2012-01-18T12:31:57Z</time></trkpt><trkpt lat="51.6895059776" lon="-2.3082080763"><ele>209.22</ele><time>2012-01-18T12:32:02Z</time></trkpt><trkpt lat="51.6894444544" lon="-2.3080357444"><ele>206.82</ele><time>2012-01-18T12:32:14Z</time></trkpt><trkpt lat="51.6894341446" lon="-2.3079839442"><ele>204.90</ele><time>2012-01-18T12:32:19Z</time></trkpt><trkpt lat="51.6894396767" lon="-2.3079386819"><ele>204.42</ele><time>2012-01-18T12:32:23Z</time></trkpt><trkpt lat="51.6894260142" lon="-2.3079095129"><ele>203.94</ele><time>2012-01-18T12:32:26Z</time></trkpt><trkpt lat="51.6893519182" lon="-2.3078237660"><ele>201.53</ele><time>2012-01-18T12:32:37Z</time></trkpt><trkpt lat="51.6893191449" lon="-2.3077660147"><ele>201.53</ele><time>2012-01-18T12:32:41Z</time></trkpt><trkpt lat="51.6892398521" lon="-2.3076928407"><ele>199.61</ele><time>2012-01-18T12:32:53Z</time></trkpt><trkpt lat="51.6891750600" lon="-2.3076303117"><ele>198.65</ele><time>2012-01-18T12:33:09Z</time></trkpt><trkpt lat="51.6891837772" lon="-2.3075412121"><ele>198.17</ele><time>2012-01-18T12:33:22Z</time></trkpt><trkpt lat="51.6891545244" lon="-2.3073211033"><ele>197.21</ele><time>2012-01-18T12:33:39Z</time></trkpt><trkpt lat="51.6891342402" lon="-2.3072219454"><ele>195.28</ele><time>2012-01-18T12:33:56Z</time></trkpt><trkpt lat="51.6891336534" lon="-2.3072055168"><ele>194.80</ele><time>2012-01-18T12:34:20Z</time></trkpt><trkpt lat="51.6891342402" lon="-2.3070957139"><ele>192.88</ele><time>2012-01-18T12:34:46Z</time></trkpt><trkpt lat="51.6892263573" lon="-2.3073625099"><ele>195.28</ele><time>2012-01-18T12:35:03Z</time></trkpt><trkpt lat="51.6891761497" lon="-2.3071921058"><ele>194.80</ele><time>2012-01-18T12:35:25Z</time></trkpt><trkpt lat="51.6891349107" lon="-2.3070865776"><ele>193.84</ele><time>2012-01-18T12:35:44Z</time></trkpt><trkpt lat="51.6890489124" lon="-2.3069071211"><ele>190.96</ele><time>2012-01-18T12:35:55Z</time></trkpt><trkpt lat="51.6890246887" lon="-2.3067934625"><ele>187.59</ele><time>2012-01-18T12:36:02Z</time></trkpt><trkpt lat="51.6890008841" lon="-2.3066991661"><ele>186.63</ele><time>2012-01-18T12:36:06Z</time></trkpt><trkpt lat="51.6889520176" lon="-2.3065525666"><ele>185.19</ele><time>2012-01-18T12:36:11Z</time></trkpt><trkpt lat="51.6889076773" lon="-2.3064248264"><ele>181.83</ele><time>2012-01-18T12:36:22Z</time></trkpt><trkpt lat="51.6888816934" lon="-2.3062459566"><ele>179.90</ele><time>2012-01-18T12:36:30Z</time></trkpt><trkpt lat="51.6888754070" lon="-2.3061866127"><ele>178.46</ele><time>2012-01-18T12:36:35Z</time></trkpt><trkpt lat="51.6888772510" lon="-2.3060478922"><ele>176.06</ele><time>2012-01-18T12:36:41Z</time></trkpt><trkpt lat="51.6888643429" lon="-2.3059850279"><ele>175.10</ele><time>2012-01-18T12:36:50Z</time></trkpt><trkpt lat="51.6888567992" lon="-2.3058388475"><ele>173.17</ele><time>2012-01-18T12:37:04Z</time></trkpt><trkpt lat="51.6888570506" lon="-2.3057748936"><ele>170.77</ele><time>2012-01-18T12:37:23Z</time></trkpt><trkpt lat="51.6888552904" lon="-2.3056013882"><ele>167.89</ele><time>2012-01-18T12:37:44Z</time></trkpt><trkpt lat="51.6888487525" lon="-2.3055566289"><ele>165.48</ele><time>2012-01-18T12:38:00Z</time></trkpt><trkpt lat="51.6888745688" lon="-2.3052883241"><ele>163.56</ele><time>2012-01-18T12:38:17Z</time></trkpt><trkpt lat="51.6889052466" lon="-2.3050566483"><ele>161.64</ele><time>2012-01-18T12:38:34Z</time></trkpt><trkpt lat="51.6889068391" lon="-2.3049418163"><ele>160.20</ele><time>2012-01-18T12:38:50Z</time></trkpt><trkpt lat="51.6889619082" lon="-2.3048922792"><ele>157.31</ele><time>2012-01-18T12:39:10Z</time></trkpt><trkpt lat="51.6890256945" lon="-2.3047258146"><ele>156.35</ele><time>2012-01-18T12:39:24Z</time></trkpt><trkpt lat="51.6890053265" lon="-2.3046613578"><ele>153.95</ele><time>2012-01-18T12:39:39Z</time></trkpt><trkpt lat="51.6890063323" lon="-2.3044438474"><ele>152.51</ele><time>2012-01-18T12:39:52Z</time></trkpt><trkpt lat="51.6890162230" lon="-2.3043722659"><ele>152.51</ele><time>2012-01-18T12:39:55Z</time></trkpt><trkpt lat="51.6890950967" lon="-2.3040312901"><ele>150.10</ele><time>2012-01-18T12:40:11Z</time></trkpt><trkpt lat="51.6890827753" lon="-2.3040255066"><ele>150.10</ele><time>2012-01-18T12:40:13Z</time></trkpt><trkpt lat="51.6889422107" lon="-2.3039497342"><ele>149.62</ele><time>2012-01-18T12:40:23Z</time></trkpt><trkpt lat="51.6888742335" lon="-2.3036128655"><ele>147.70</ele><time>2012-01-18T12:40:43Z</time></trkpt><trkpt lat="51.6888482496" lon="-2.3035251070"><ele>146.74</ele><time>2012-01-18T12:40:50Z</time></trkpt><trkpt lat="51.6887709685" lon="-2.3033082671"><ele>145.78</ele><time>2012-01-18T12:41:04Z</time></trkpt><trkpt lat="51.6886684578" lon="-2.3031073529"><ele>143.85</ele><time>2012-01-18T12:41:20Z</time></trkpt><trkpt lat="51.6886366066" lon="-2.3030691314"><ele>143.37</ele><time>2012-01-18T12:41:24Z</time></trkpt><trkpt lat="51.6884901747" lon="-2.3029814567"><ele>142.41</ele><time>2012-01-18T12:41:38Z</time></trkpt><trkpt lat="51.6884731594" lon="-2.3029739968"><ele>141.93</ele><time>2012-01-18T12:41:40Z</time></trkpt><trkpt lat="51.6884284839" lon="-2.3029330932"><ele>141.45</ele><time>2012-01-18T12:41:46Z</time></trkpt><trkpt lat="51.6884271428" lon="-2.3028957099"><ele>141.45</ele><time>2012-01-18T12:41:49Z</time></trkpt><trkpt lat="51.6883219499" lon="-2.3029578198"><ele>140.01</ele><time>2012-01-18T12:42:00Z</time></trkpt><trkpt lat="51.6882072855" lon="-2.3029494379"><ele>139.53</ele><time>2012-01-18T12:42:08Z</time></trkpt><trkpt lat="51.6881478578" lon="-2.3029297404"><ele>138.57</ele><time>2012-01-18T12:42:12Z</time></trkpt><trkpt lat="51.6878946405" lon="-2.3028624337"><ele>136.16</ele><time>2012-01-18T12:42:33Z</time></trkpt><trkpt lat="51.6878792178" lon="-2.3028522078"><ele>136.16</ele><time>2012-01-18T12:42:34Z</time></trkpt><trkpt lat="51.6878448520" lon="-2.3028374556"><ele>136.16</ele><time>2012-01-18T12:42:36Z</time></trkpt><trkpt lat="51.6876590252" lon="-2.3026802950"><ele>133.76</ele><time>2012-01-18T12:42:53Z</time></trkpt><trkpt lat="51.6875540838" lon="-2.3025556561"><ele>132.80</ele><time>2012-01-18T12:43:10Z</time></trkpt><trkpt lat="51.6874966677" lon="-2.3024059553"><ele>131.84</ele><time>2012-01-18T12:43:17Z</time></trkpt><trkpt lat="51.6874359827" lon="-2.3021510616"><ele>129.92</ele><time>2012-01-18T12:43:32Z</time></trkpt><trkpt lat="51.6874342225" lon="-2.3021229822"><ele>129.43</ele><time>2012-01-18T12:43:34Z</time></trkpt><trkpt lat="51.6873157863" lon="-2.3019147757"><ele>127.99</ele><time>2012-01-18T12:43:49Z</time></trkpt><trkpt lat="51.6872923169" lon="-2.3018923122"><ele>127.99</ele><time>2012-01-18T12:43:52Z</time></trkpt><trkpt lat="51.6871836036" lon="-2.3018691782"><ele>127.03</ele><time>2012-01-18T12:44:01Z</time></trkpt><trkpt lat="51.6870323941" lon="-2.3018887080"><ele>126.55</ele><time>2012-01-18T12:44:14Z</time></trkpt><trkpt lat="51.6869548615" lon="-2.3019070644"><ele>126.55</ele><time>2012-01-18T12:44:21Z</time></trkpt><trkpt lat="51.6868628282" lon="-2.3018998560"><ele>127.03</ele><time>2012-01-18T12:44:28Z</time></trkpt><trkpt lat="51.6867008060" lon="-2.3019591160"><ele>126.07</ele><time>2012-01-18T12:44:44Z</time></trkpt><trkpt lat="51.6866532806" lon="-2.3019772209"><ele>125.59</ele><time>2012-01-18T12:44:49Z</time></trkpt><trkpt lat="51.6865449026" lon="-2.3019847646"><ele>125.59</ele><time>2012-01-18T12:44:58Z</time></trkpt><trkpt lat="51.6865042504" lon="-2.3020016123"><ele>126.07</ele><time>2012-01-18T12:45:02Z</time></trkpt><trkpt lat="51.6864076070" lon="-2.3020418454"><ele>125.11</ele><time>2012-01-18T12:45:12Z</time></trkpt><trkpt lat="51.6862662882" lon="-2.3022317793"><ele>124.63</ele><time>2012-01-18T12:45:28Z</time></trkpt><trkpt lat="51.6860977281" lon="-2.3023882695"><ele>123.67</ele><time>2012-01-18T12:45:47Z</time></trkpt><trkpt lat="51.6860395577" lon="-2.3026132397"><ele>122.22</ele><time>2012-01-18T12:46:01Z</time></trkpt><trkpt lat="51.6860173456" lon="-2.3026355356"><ele>122.22</ele><time>2012-01-18T12:46:03Z</time></trkpt><trkpt lat="51.6858683992" lon="-2.3027667962"><ele>120.30</ele><time>2012-01-18T12:46:17Z</time></trkpt><trkpt lat="51.6858436726" lon="-2.3027722444"><ele>121.26</ele><time>2012-01-18T12:46:19Z</time></trkpt><trkpt lat="51.6858132463" lon="-2.3027527984"><ele>120.30</ele><time>2012-01-18T12:46:22Z</time></trkpt><trkpt lat="51.6857767012" lon="-2.3024738487"><ele>119.82</ele><time>2012-01-18T12:46:36Z</time></trkpt><trkpt lat="51.6857084725" lon="-2.3022105731"><ele>119.34</ele><time>2012-01-18T12:46:56Z</time></trkpt><trkpt lat="51.6856896970" lon="-2.3021354713"><ele>118.38</ele><time>2012-01-18T12:47:02Z</time></trkpt><trkpt lat="51.6856868472" lon="-2.3020988423"><ele>118.86</ele><time>2012-01-18T12:47:04Z</time></trkpt><trkpt lat="51.6857076343" lon="-2.3018504027"><ele>120.30</ele><time>2012-01-18T12:47:22Z</time></trkpt><trkpt lat="51.6857058741" lon="-2.3018250894"><ele>120.78</ele><time>2012-01-18T12:47:41Z</time></trkpt></trkseg></trk></gpx>